<?xml version="1.0" encoding="UTF-8" standalone="no" ?>
<gpx xmlns="http://www.topografix.com/GPX/1/1" xmlns:xsi="http://www.w3.org/2001/XMLSchema-instance" xsi:schemaLocation="http://www.topografix.com/GPX/1/1 http://www.topografix.com/GPX/1/1/gpx.xsd" version="1.1" creator="VisuGPX - https://www.visugpx.com">
  <metadata>
    <name>Passerelles du Monteynard</name>
    <desc><![CDATA[Joli tour permettant de visiter les passerelles du Monteynard]]></desc>
  </metadata>
  <trk>
    <name><![CDATA[Passerelles du Monteynard]]></name>
    <cmt><![CDATA[3 juil. 2011 10:03:51]]></cmt>
    <trkseg>
      <trkpt lat="44.84959" lon="5.70704">
        <ele>783</ele>
        <time>2011-07-03T08:03:52Z</time>
      </trkpt>
      <trkpt lat="44.8496" lon="5.70702">
        <ele>784</ele>
        <time>2011-07-03T08:05:25Z</time>
      </trkpt>
      <trkpt lat="44.84962" lon="5.70701">
        <ele>785</ele>
        <time>2011-07-03T08:05:47Z</time>
      </trkpt>
      <trkpt lat="44.8497" lon="5.70696">
        <ele>785</ele>
        <time>2011-07-03T08:06:05Z</time>
      </trkpt>
      <trkpt lat="44.84973" lon="5.70701">
        <ele>786</ele>
        <time>2011-07-03T08:06:23Z</time>
      </trkpt>
      <trkpt lat="44.84992" lon="5.70723">
        <ele>788</ele>
        <time>2011-07-03T08:06:50Z</time>
      </trkpt>
      <trkpt lat="44.85002" lon="5.7075">
        <ele>791</ele>
        <time>2011-07-03T08:07:17Z</time>
      </trkpt>
      <trkpt lat="44.85005" lon="5.70751">
        <ele>794</ele>
        <time>2011-07-03T08:07:43Z</time>
      </trkpt>
      <trkpt lat="44.85009" lon="5.70748">
        <ele>794</ele>
        <time>2011-07-03T08:07:49Z</time>
      </trkpt>
      <trkpt lat="44.85018" lon="5.70747">
        <ele>795</ele>
        <time>2011-07-03T08:07:58Z</time>
      </trkpt>
      <trkpt lat="44.85056" lon="5.70726">
        <ele>798</ele>
        <time>2011-07-03T08:08:30Z</time>
      </trkpt>
      <trkpt lat="44.85086" lon="5.70699">
        <ele>799</ele>
        <time>2011-07-03T08:09:00Z</time>
      </trkpt>
      <trkpt lat="44.85102" lon="5.70675">
        <ele>799</ele>
        <time>2011-07-03T08:09:22Z</time>
      </trkpt>
      <trkpt lat="44.85138" lon="5.70651">
        <ele>799</ele>
        <time>2011-07-03T08:09:59Z</time>
      </trkpt>
      <trkpt lat="44.85147" lon="5.70645">
        <ele>800</ele>
        <time>2011-07-03T08:10:05Z</time>
      </trkpt>
      <trkpt lat="44.85168" lon="5.70649">
        <ele>800</ele>
        <time>2011-07-03T08:10:18Z</time>
      </trkpt>
      <trkpt lat="44.85211" lon="5.70642">
        <ele>800</ele>
        <time>2011-07-03T08:10:55Z</time>
      </trkpt>
      <trkpt lat="44.85254" lon="5.70653">
        <ele>802</ele>
        <time>2011-07-03T08:11:26Z</time>
      </trkpt>
      <trkpt lat="44.85289" lon="5.7065">
        <ele>802</ele>
        <time>2011-07-03T08:11:58Z</time>
      </trkpt>
      <trkpt lat="44.85299" lon="5.70653">
        <ele>802</ele>
        <time>2011-07-03T08:12:07Z</time>
      </trkpt>
      <trkpt lat="44.85336" lon="5.70645">
        <ele>803</ele>
        <time>2011-07-03T08:12:40Z</time>
      </trkpt>
      <trkpt lat="44.85348" lon="5.70647">
        <ele>804</ele>
        <time>2011-07-03T08:12:50Z</time>
      </trkpt>
      <trkpt lat="44.85365" lon="5.70658">
        <ele>804</ele>
        <time>2011-07-03T08:13:07Z</time>
      </trkpt>
      <trkpt lat="44.85375" lon="5.70654">
        <ele>801</ele>
        <time>2011-07-03T08:13:33Z</time>
      </trkpt>
      <trkpt lat="44.85385" lon="5.70649">
        <ele>799</ele>
        <time>2011-07-03T08:13:45Z</time>
      </trkpt>
      <trkpt lat="44.85397" lon="5.70641">
        <ele>799</ele>
        <time>2011-07-03T08:13:55Z</time>
      </trkpt>
      <trkpt lat="44.85443" lon="5.70627">
        <ele>800</ele>
        <time>2011-07-03T08:14:29Z</time>
      </trkpt>
      <trkpt lat="44.85487" lon="5.70621">
        <ele>802</ele>
        <time>2011-07-03T08:15:04Z</time>
      </trkpt>
      <trkpt lat="44.85526" lon="5.70614">
        <ele>805</ele>
        <time>2011-07-03T08:15:35Z</time>
      </trkpt>
      <trkpt lat="44.85578" lon="5.70601">
        <ele>806</ele>
        <time>2011-07-03T08:16:07Z</time>
      </trkpt>
      <trkpt lat="44.85594" lon="5.70599">
        <ele>807</ele>
        <time>2011-07-03T08:16:17Z</time>
      </trkpt>
      <trkpt lat="44.85639" lon="5.70585">
        <ele>804</ele>
        <time>2011-07-03T08:16:50Z</time>
      </trkpt>
      <trkpt lat="44.85683" lon="5.7057">
        <ele>802</ele>
        <time>2011-07-03T08:17:23Z</time>
      </trkpt>
      <trkpt lat="44.8572" lon="5.70553">
        <ele>800</ele>
        <time>2011-07-03T08:17:54Z</time>
      </trkpt>
      <trkpt lat="44.85762" lon="5.7053">
        <ele>798</ele>
        <time>2011-07-03T08:18:27Z</time>
      </trkpt>
      <trkpt lat="44.85804" lon="5.70503">
        <ele>796</ele>
        <time>2011-07-03T08:18:58Z</time>
      </trkpt>
      <trkpt lat="44.85837" lon="5.70481">
        <ele>794</ele>
        <time>2011-07-03T08:19:24Z</time>
      </trkpt>
      <trkpt lat="44.85839" lon="5.70474">
        <ele>793</ele>
        <time>2011-07-03T08:19:32Z</time>
      </trkpt>
      <trkpt lat="44.85844" lon="5.70469">
        <ele>793</ele>
        <time>2011-07-03T08:19:37Z</time>
      </trkpt>
      <trkpt lat="44.85879" lon="5.70437">
        <ele>790</ele>
        <time>2011-07-03T08:20:10Z</time>
      </trkpt>
      <trkpt lat="44.85905" lon="5.70399">
        <ele>788</ele>
        <time>2011-07-03T08:20:45Z</time>
      </trkpt>
      <trkpt lat="44.85926" lon="5.70368">
        <ele>787</ele>
        <time>2011-07-03T08:21:17Z</time>
      </trkpt>
      <trkpt lat="44.85944" lon="5.70363">
        <ele>787</ele>
        <time>2011-07-03T08:21:34Z</time>
      </trkpt>
      <trkpt lat="44.85953" lon="5.70355">
        <ele>787</ele>
        <time>2011-07-03T08:21:42Z</time>
      </trkpt>
      <trkpt lat="44.85987" lon="5.70344">
        <ele>789</ele>
        <time>2011-07-03T08:22:13Z</time>
      </trkpt>
      <trkpt lat="44.86022" lon="5.70333">
        <ele>790</ele>
        <time>2011-07-03T08:22:46Z</time>
      </trkpt>
      <trkpt lat="44.8605" lon="5.70326">
        <ele>790</ele>
        <time>2011-07-03T08:23:16Z</time>
      </trkpt>
      <trkpt lat="44.86082" lon="5.70307">
        <ele>785</ele>
        <time>2011-07-03T08:23:50Z</time>
      </trkpt>
      <trkpt lat="44.86095" lon="5.70291">
        <ele>782</ele>
        <time>2011-07-03T08:24:12Z</time>
      </trkpt>
      <trkpt lat="44.86096" lon="5.70284">
        <ele>782</ele>
        <time>2011-07-03T08:24:16Z</time>
      </trkpt>
      <trkpt lat="44.86096" lon="5.70275">
        <ele>779</ele>
        <time>2011-07-03T08:24:45Z</time>
      </trkpt>
      <trkpt lat="44.86093" lon="5.70278">
        <ele>771</ele>
        <time>2011-07-03T08:25:33Z</time>
      </trkpt>
      <trkpt lat="44.86086" lon="5.70298">
        <ele>765</ele>
        <time>2011-07-03T08:26:00Z</time>
      </trkpt>
      <trkpt lat="44.86095" lon="5.70308">
        <ele>762</ele>
        <time>2011-07-03T08:26:18Z</time>
      </trkpt>
      <trkpt lat="44.86103" lon="5.70314">
        <ele>761</ele>
        <time>2011-07-03T08:26:31Z</time>
      </trkpt>
      <trkpt lat="44.86112" lon="5.70318">
        <ele>762</ele>
        <time>2011-07-03T08:26:43Z</time>
      </trkpt>
      <trkpt lat="44.8612" lon="5.7031">
        <ele>764</ele>
        <time>2011-07-03T08:26:56Z</time>
      </trkpt>
      <trkpt lat="44.8613" lon="5.70298">
        <ele>765</ele>
        <time>2011-07-03T08:27:17Z</time>
      </trkpt>
      <trkpt lat="44.86134" lon="5.70286">
        <ele>765</ele>
        <time>2011-07-03T08:27:25Z</time>
      </trkpt>
      <trkpt lat="44.86152" lon="5.7028">
        <ele>763</ele>
        <time>2011-07-03T08:27:49Z</time>
      </trkpt>
      <trkpt lat="44.86159" lon="5.7027">
        <ele>762</ele>
        <time>2011-07-03T08:28:08Z</time>
      </trkpt>
      <trkpt lat="44.8618" lon="5.70242">
        <ele>762</ele>
        <time>2011-07-03T08:28:41Z</time>
      </trkpt>
      <trkpt lat="44.86185" lon="5.70239">
        <ele>759</ele>
        <time>2011-07-03T08:29:22Z</time>
      </trkpt>
      <trkpt lat="44.86188" lon="5.70244">
        <ele>759</ele>
        <time>2011-07-03T08:29:23Z</time>
      </trkpt>
      <trkpt lat="44.86197" lon="5.7025">
        <ele>754</ele>
        <time>2011-07-03T08:29:59Z</time>
      </trkpt>
      <trkpt lat="44.8621" lon="5.70252">
        <ele>745</ele>
        <time>2011-07-03T08:30:36Z</time>
      </trkpt>
      <trkpt lat="44.86232" lon="5.7026">
        <ele>738</ele>
        <time>2011-07-03T08:31:14Z</time>
      </trkpt>
      <trkpt lat="44.86247" lon="5.70291">
        <ele>734</ele>
        <time>2011-07-03T08:31:38Z</time>
      </trkpt>
      <trkpt lat="44.86266" lon="5.70297">
        <ele>728</ele>
        <time>2011-07-03T08:32:01Z</time>
      </trkpt>
      <trkpt lat="44.8627" lon="5.70294">
        <ele>728</ele>
        <time>2011-07-03T08:32:28Z</time>
      </trkpt>
      <trkpt lat="44.86279" lon="5.70299">
        <ele>727</ele>
        <time>2011-07-03T08:32:39Z</time>
      </trkpt>
      <trkpt lat="44.86288" lon="5.70305">
        <ele>726</ele>
        <time>2011-07-03T08:32:51Z</time>
      </trkpt>
      <trkpt lat="44.86301" lon="5.70293">
        <ele>725</ele>
        <time>2011-07-03T08:33:09Z</time>
      </trkpt>
      <trkpt lat="44.86309" lon="5.70286">
        <ele>724</ele>
        <time>2011-07-03T08:33:15Z</time>
      </trkpt>
      <trkpt lat="44.86332" lon="5.70281">
        <ele>717</ele>
        <time>2011-07-03T08:33:40Z</time>
      </trkpt>
      <trkpt lat="44.86332" lon="5.70281">
        <ele>706</ele>
        <time>2011-07-03T08:35:36Z</time>
      </trkpt>
      <trkpt lat="44.86329" lon="5.70285">
        <ele>705</ele>
        <time>2011-07-03T08:36:09Z</time>
      </trkpt>
      <trkpt lat="44.86329" lon="5.70292">
        <ele>704</ele>
        <time>2011-07-03T08:36:19Z</time>
      </trkpt>
      <trkpt lat="44.86333" lon="5.70288">
        <ele>704</ele>
        <time>2011-07-03T08:36:23Z</time>
      </trkpt>
      <trkpt lat="44.86347" lon="5.70274">
        <ele>700</ele>
        <time>2011-07-03T08:36:46Z</time>
      </trkpt>
      <trkpt lat="44.86352" lon="5.70276">
        <ele>699</ele>
        <time>2011-07-03T08:36:57Z</time>
      </trkpt>
      <trkpt lat="44.86352" lon="5.70278">
        <ele>691</ele>
        <time>2011-07-03T08:38:17Z</time>
      </trkpt>
      <trkpt lat="44.86352" lon="5.70281">
        <ele>687</ele>
        <time>2011-07-03T08:38:53Z</time>
      </trkpt>
      <trkpt lat="44.86356" lon="5.70285">
        <ele>686</ele>
        <time>2011-07-03T08:39:14Z</time>
      </trkpt>
      <trkpt lat="44.86358" lon="5.70285">
        <ele>685</ele>
        <time>2011-07-03T08:39:37Z</time>
      </trkpt>
      <trkpt lat="44.86362" lon="5.70289">
        <ele>685</ele>
        <time>2011-07-03T08:39:39Z</time>
      </trkpt>
      <trkpt lat="44.86364" lon="5.70296">
        <ele>683</ele>
        <time>2011-07-03T08:39:55Z</time>
      </trkpt>
      <trkpt lat="44.86369" lon="5.70302">
        <ele>682</ele>
        <time>2011-07-03T08:40:05Z</time>
      </trkpt>
      <trkpt lat="44.86372" lon="5.703">
        <ele>681</ele>
        <time>2011-07-03T08:40:22Z</time>
      </trkpt>
      <trkpt lat="44.86368" lon="5.70305">
        <ele>680</ele>
        <time>2011-07-03T08:41:02Z</time>
      </trkpt>
      <trkpt lat="44.86373" lon="5.70309">
        <ele>680</ele>
        <time>2011-07-03T08:41:19Z</time>
      </trkpt>
      <trkpt lat="44.86394" lon="5.70358">
        <ele>679</ele>
        <time>2011-07-03T08:41:55Z</time>
      </trkpt>
      <trkpt lat="44.86398" lon="5.70371">
        <ele>679</ele>
        <time>2011-07-03T08:42:02Z</time>
      </trkpt>
      <trkpt lat="44.86399" lon="5.70374">
        <ele>678</ele>
        <time>2011-07-03T08:42:08Z</time>
      </trkpt>
      <trkpt lat="44.86397" lon="5.70385">
        <ele>678</ele>
        <time>2011-07-03T08:42:19Z</time>
      </trkpt>
      <trkpt lat="44.86385" lon="5.70427">
        <ele>674</ele>
        <time>2011-07-03T08:42:51Z</time>
      </trkpt>
      <trkpt lat="44.86373" lon="5.70467">
        <ele>672</ele>
        <time>2011-07-03T08:43:22Z</time>
      </trkpt>
      <trkpt lat="44.86383" lon="5.70505">
        <ele>668</ele>
        <time>2011-07-03T08:43:59Z</time>
      </trkpt>
      <trkpt lat="44.86393" lon="5.70519">
        <ele>668</ele>
        <time>2011-07-03T08:44:10Z</time>
      </trkpt>
      <trkpt lat="44.8643" lon="5.70554">
        <ele>667</ele>
        <time>2011-07-03T08:44:45Z</time>
      </trkpt>
      <trkpt lat="44.86449" lon="5.70603">
        <ele>666</ele>
        <time>2011-07-03T08:45:19Z</time>
      </trkpt>
      <trkpt lat="44.86458" lon="5.70657">
        <ele>665</ele>
        <time>2011-07-03T08:45:52Z</time>
      </trkpt>
      <trkpt lat="44.86467" lon="5.70679">
        <ele>664</ele>
        <time>2011-07-03T08:46:00Z</time>
      </trkpt>
      <trkpt lat="44.86495" lon="5.70715">
        <ele>660</ele>
        <time>2011-07-03T08:46:31Z</time>
      </trkpt>
      <trkpt lat="44.865" lon="5.70715">
        <ele>660</ele>
        <time>2011-07-03T08:46:35Z</time>
      </trkpt>
      <trkpt lat="44.86533" lon="5.70691">
        <ele>659</ele>
        <time>2011-07-03T08:47:11Z</time>
      </trkpt>
      <trkpt lat="44.86549" lon="5.7064">
        <ele>658</ele>
        <time>2011-07-03T08:47:47Z</time>
      </trkpt>
      <trkpt lat="44.86563" lon="5.70604">
        <ele>653</ele>
        <time>2011-07-03T08:48:18Z</time>
      </trkpt>
      <trkpt lat="44.86571" lon="5.70596">
        <ele>651</ele>
        <time>2011-07-03T08:48:30Z</time>
      </trkpt>
      <trkpt lat="44.8658" lon="5.70593">
        <ele>650</ele>
        <time>2011-07-03T08:48:38Z</time>
      </trkpt>
      <trkpt lat="44.86595" lon="5.70572">
        <ele>647</ele>
        <time>2011-07-03T08:48:55Z</time>
      </trkpt>
      <trkpt lat="44.86632" lon="5.70535">
        <ele>634</ele>
        <time>2011-07-03T08:49:33Z</time>
      </trkpt>
      <trkpt lat="44.8666" lon="5.70531">
        <ele>629</ele>
        <time>2011-07-03T08:49:55Z</time>
      </trkpt>
      <trkpt lat="44.86669" lon="5.70537">
        <ele>628</ele>
        <time>2011-07-03T08:50:03Z</time>
      </trkpt>
      <trkpt lat="44.86679" lon="5.70562">
        <ele>626</ele>
        <time>2011-07-03T08:50:16Z</time>
      </trkpt>
      <trkpt lat="44.86681" lon="5.70566">
        <ele>625</ele>
        <time>2011-07-03T08:50:30Z</time>
      </trkpt>
      <trkpt lat="44.86684" lon="5.70582">
        <ele>623</ele>
        <time>2011-07-03T08:50:50Z</time>
      </trkpt>
      <trkpt lat="44.8669" lon="5.70622">
        <ele>622</ele>
        <time>2011-07-03T08:51:21Z</time>
      </trkpt>
      <trkpt lat="44.86704" lon="5.70673">
        <ele>618</ele>
        <time>2011-07-03T08:51:52Z</time>
      </trkpt>
      <trkpt lat="44.86712" lon="5.70682">
        <ele>616</ele>
        <time>2011-07-03T08:52:05Z</time>
      </trkpt>
      <trkpt lat="44.86711" lon="5.70675">
        <ele>612</ele>
        <time>2011-07-03T08:52:41Z</time>
      </trkpt>
      <trkpt lat="44.86716" lon="5.70655">
        <ele>611</ele>
        <time>2011-07-03T08:52:59Z</time>
      </trkpt>
      <trkpt lat="44.8672" lon="5.70621">
        <ele>610</ele>
        <time>2011-07-03T08:53:15Z</time>
      </trkpt>
      <trkpt lat="44.86725" lon="5.70609">
        <ele>610</ele>
        <time>2011-07-03T08:53:26Z</time>
      </trkpt>
      <trkpt lat="44.86732" lon="5.70622">
        <ele>607</ele>
        <time>2011-07-03T08:53:54Z</time>
      </trkpt>
      <trkpt lat="44.86735" lon="5.70649">
        <ele>606</ele>
        <time>2011-07-03T08:54:18Z</time>
      </trkpt>
      <trkpt lat="44.86741" lon="5.70658">
        <ele>602</ele>
        <time>2011-07-03T08:54:41Z</time>
      </trkpt>
      <trkpt lat="44.86745" lon="5.70673">
        <ele>598</ele>
        <time>2011-07-03T08:54:55Z</time>
      </trkpt>
      <trkpt lat="44.86752" lon="5.70681">
        <ele>596</ele>
        <time>2011-07-03T08:55:12Z</time>
      </trkpt>
      <trkpt lat="44.86754" lon="5.70694">
        <ele>594</ele>
        <time>2011-07-03T08:55:23Z</time>
      </trkpt>
      <trkpt lat="44.8676" lon="5.70704">
        <ele>591</ele>
        <time>2011-07-03T08:55:32Z</time>
      </trkpt>
      <trkpt lat="44.86764" lon="5.70724">
        <ele>585</ele>
        <time>2011-07-03T08:55:55Z</time>
      </trkpt>
      <trkpt lat="44.86775" lon="5.70749">
        <ele>584</ele>
        <time>2011-07-03T08:56:10Z</time>
      </trkpt>
      <trkpt lat="44.86784" lon="5.7076">
        <ele>575</ele>
        <time>2011-07-03T08:56:32Z</time>
      </trkpt>
      <trkpt lat="44.86786" lon="5.70779">
        <ele>571</ele>
        <time>2011-07-03T08:56:54Z</time>
      </trkpt>
      <trkpt lat="44.8679" lon="5.70783">
        <ele>569</ele>
        <time>2011-07-03T08:57:02Z</time>
      </trkpt>
      <trkpt lat="44.86786" lon="5.70785">
        <ele>566</ele>
        <time>2011-07-03T08:57:28Z</time>
      </trkpt>
      <trkpt lat="44.86785" lon="5.70772">
        <ele>564</ele>
        <time>2011-07-03T08:57:57Z</time>
      </trkpt>
      <trkpt lat="44.8679" lon="5.70771">
        <ele>561</ele>
        <time>2011-07-03T08:58:33Z</time>
      </trkpt>
      <trkpt lat="44.86788" lon="5.70778">
        <ele>560</ele>
        <time>2011-07-03T08:58:59Z</time>
      </trkpt>
      <trkpt lat="44.86786" lon="5.70785">
        <ele>558</ele>
        <time>2011-07-03T08:59:06Z</time>
      </trkpt>
      <trkpt lat="44.86789" lon="5.70786">
        <ele>556</ele>
        <time>2011-07-03T08:59:13Z</time>
      </trkpt>
      <trkpt lat="44.86796" lon="5.70797">
        <ele>553</ele>
        <time>2011-07-03T08:59:34Z</time>
      </trkpt>
      <trkpt lat="44.86802" lon="5.70805">
        <ele>550</ele>
        <time>2011-07-03T09:00:14Z</time>
      </trkpt>
      <trkpt lat="44.86812" lon="5.708">
        <ele>549</ele>
        <time>2011-07-03T09:00:21Z</time>
      </trkpt>
      <trkpt lat="44.86821" lon="5.70805">
        <ele>547</ele>
        <time>2011-07-03T09:00:31Z</time>
      </trkpt>
      <trkpt lat="44.8683" lon="5.7082">
        <ele>546</ele>
        <time>2011-07-03T09:00:43Z</time>
      </trkpt>
      <trkpt lat="44.86837" lon="5.7082">
        <ele>546</ele>
        <time>2011-07-03T09:01:03Z</time>
      </trkpt>
      <trkpt lat="44.8684" lon="5.70834">
        <ele>546</ele>
        <time>2011-07-03T09:01:12Z</time>
      </trkpt>
      <trkpt lat="44.86844" lon="5.70838">
        <ele>545</ele>
        <time>2011-07-03T09:01:14Z</time>
      </trkpt>
      <trkpt lat="44.86856" lon="5.70844">
        <ele>543</ele>
        <time>2011-07-03T09:01:24Z</time>
      </trkpt>
      <trkpt lat="44.8686" lon="5.70842">
        <ele>542</ele>
        <time>2011-07-03T09:01:38Z</time>
      </trkpt>
      <trkpt lat="44.86865" lon="5.70844">
        <ele>542</ele>
        <time>2011-07-03T09:01:43Z</time>
      </trkpt>
      <trkpt lat="44.86872" lon="5.70854">
        <ele>540</ele>
        <time>2011-07-03T09:01:54Z</time>
      </trkpt>
      <trkpt lat="44.86877" lon="5.70853">
        <ele>539</ele>
        <time>2011-07-03T09:01:59Z</time>
      </trkpt>
      <trkpt lat="44.86881" lon="5.70858">
        <ele>539</ele>
        <time>2011-07-03T09:02:03Z</time>
      </trkpt>
      <trkpt lat="44.86907" lon="5.70883">
        <ele>535</ele>
        <time>2011-07-03T09:02:34Z</time>
      </trkpt>
      <trkpt lat="44.86941" lon="5.70919">
        <ele>533</ele>
        <time>2011-07-03T09:03:06Z</time>
      </trkpt>
      <trkpt lat="44.86962" lon="5.70936">
        <ele>533</ele>
        <time>2011-07-03T09:03:35Z</time>
      </trkpt>
      <trkpt lat="44.86967" lon="5.70936">
        <ele>533</ele>
        <time>2011-07-03T09:03:49Z</time>
      </trkpt>
      <trkpt lat="44.8697" lon="5.70933">
        <ele>534</ele>
        <time>2011-07-03T09:04:29Z</time>
      </trkpt>
      <trkpt lat="44.86969" lon="5.70932">
        <ele>536</ele>
        <time>2011-07-03T09:05:30Z</time>
      </trkpt>
      <trkpt lat="44.86964" lon="5.70934">
        <ele>537</ele>
        <time>2011-07-03T09:05:35Z</time>
      </trkpt>
      <trkpt lat="44.8696" lon="5.70929">
        <ele>538</ele>
        <time>2011-07-03T09:06:03Z</time>
      </trkpt>
      <trkpt lat="44.86953" lon="5.70919">
        <ele>539</ele>
        <time>2011-07-03T09:06:18Z</time>
      </trkpt>
      <trkpt lat="44.86949" lon="5.70909">
        <ele>540</ele>
        <time>2011-07-03T09:06:37Z</time>
      </trkpt>
      <trkpt lat="44.86951" lon="5.70903">
        <ele>540</ele>
        <time>2011-07-03T09:06:53Z</time>
      </trkpt>
      <trkpt lat="44.86945" lon="5.70896">
        <ele>538</ele>
        <time>2011-07-03T09:07:11Z</time>
      </trkpt>
      <trkpt lat="44.86917" lon="5.70872">
        <ele>535</ele>
        <time>2011-07-03T09:07:45Z</time>
      </trkpt>
      <trkpt lat="44.86872" lon="5.70843">
        <ele>530</ele>
        <time>2011-07-03T09:08:19Z</time>
      </trkpt>
      <trkpt lat="44.86839" lon="5.70823">
        <ele>526</ele>
        <time>2011-07-03T09:08:49Z</time>
      </trkpt>
      <trkpt lat="44.86835" lon="5.70818">
        <ele>526</ele>
        <time>2011-07-03T09:08:52Z</time>
      </trkpt>
      <trkpt lat="44.8683" lon="5.70822">
        <ele>526</ele>
        <time>2011-07-03T09:09:00Z</time>
      </trkpt>
      <trkpt lat="44.86825" lon="5.70821">
        <ele>525</ele>
        <time>2011-07-03T09:09:04Z</time>
      </trkpt>
      <trkpt lat="44.86817" lon="5.70812">
        <ele>523</ele>
        <time>2011-07-03T09:09:15Z</time>
      </trkpt>
      <trkpt lat="44.8681" lon="5.70803">
        <ele>522</ele>
        <time>2011-07-03T09:09:26Z</time>
      </trkpt>
      <trkpt lat="44.86797" lon="5.70794">
        <ele>523</ele>
        <time>2011-07-03T09:09:41Z</time>
      </trkpt>
      <trkpt lat="44.86784" lon="5.70781">
        <ele>525</ele>
        <time>2011-07-03T09:10:11Z</time>
      </trkpt>
      <trkpt lat="44.86783" lon="5.70775">
        <ele>525</ele>
        <time>2011-07-03T09:10:21Z</time>
      </trkpt>
      <trkpt lat="44.86787" lon="5.70773">
        <ele>526</ele>
        <time>2011-07-03T09:10:42Z</time>
      </trkpt>
      <trkpt lat="44.8679" lon="5.70779">
        <ele>526</ele>
        <time>2011-07-03T09:10:47Z</time>
      </trkpt>
      <trkpt lat="44.86794" lon="5.70775">
        <ele>527</ele>
        <time>2011-07-03T09:10:59Z</time>
      </trkpt>
      <trkpt lat="44.86795" lon="5.70779">
        <ele>527</ele>
        <time>2011-07-03T09:11:21Z</time>
      </trkpt>
      <trkpt lat="44.86786" lon="5.70778">
        <ele>528</ele>
        <time>2011-07-03T09:11:37Z</time>
      </trkpt>
      <trkpt lat="44.86786" lon="5.70772">
        <ele>528</ele>
        <time>2011-07-03T09:11:43Z</time>
      </trkpt>
      <trkpt lat="44.86793" lon="5.7078">
        <ele>533</ele>
        <time>2011-07-03T09:12:29Z</time>
      </trkpt>
      <trkpt lat="44.86794" lon="5.70786">
        <ele>533</ele>
        <time>2011-07-03T09:12:33Z</time>
      </trkpt>
      <trkpt lat="44.86786" lon="5.70793">
        <ele>532</ele>
        <time>2011-07-03T09:13:03Z</time>
      </trkpt>
      <trkpt lat="44.86787" lon="5.70787">
        <ele>532</ele>
        <time>2011-07-03T09:13:37Z</time>
      </trkpt>
      <trkpt lat="44.86791" lon="5.70789">
        <ele>532</ele>
        <time>2011-07-03T09:13:47Z</time>
      </trkpt>
      <trkpt lat="44.86793" lon="5.70796">
        <ele>532</ele>
        <time>2011-07-03T09:14:00Z</time>
      </trkpt>
      <trkpt lat="44.86798" lon="5.70797">
        <ele>531</ele>
        <time>2011-07-03T09:14:17Z</time>
      </trkpt>
      <trkpt lat="44.86797" lon="5.7079">
        <ele>530</ele>
        <time>2011-07-03T09:14:43Z</time>
      </trkpt>
      <trkpt lat="44.86792" lon="5.70791">
        <ele>530</ele>
        <time>2011-07-03T09:14:50Z</time>
      </trkpt>
      <trkpt lat="44.86794" lon="5.70785">
        <ele>530</ele>
        <time>2011-07-03T09:15:18Z</time>
      </trkpt>
      <trkpt lat="44.86798" lon="5.70789">
        <ele>530</ele>
        <time>2011-07-03T09:15:25Z</time>
      </trkpt>
      <trkpt lat="44.86795" lon="5.70795">
        <ele>530</ele>
        <time>2011-07-03T09:15:52Z</time>
      </trkpt>
      <trkpt lat="44.86792" lon="5.7079">
        <ele>531</ele>
        <time>2011-07-03T09:16:14Z</time>
      </trkpt>
      <trkpt lat="44.86792" lon="5.70783">
        <ele>531</ele>
        <time>2011-07-03T09:16:41Z</time>
      </trkpt>
      <trkpt lat="44.86797" lon="5.70782">
        <ele>531</ele>
        <time>2011-07-03T09:16:51Z</time>
      </trkpt>
      <trkpt lat="44.86798" lon="5.70789">
        <ele>532</ele>
        <time>2011-07-03T09:17:26Z</time>
      </trkpt>
      <trkpt lat="44.86793" lon="5.70787">
        <ele>531</ele>
        <time>2011-07-03T09:17:35Z</time>
      </trkpt>
      <trkpt lat="44.86787" lon="5.7078">
        <ele>531</ele>
        <time>2011-07-03T09:17:48Z</time>
      </trkpt>
      <trkpt lat="44.86785" lon="5.70777">
        <ele>531</ele>
        <time>2011-07-03T09:17:57Z</time>
      </trkpt>
      <trkpt lat="44.86782" lon="5.70783">
        <ele>531</ele>
        <time>2011-07-03T09:18:06Z</time>
      </trkpt>
      <trkpt lat="44.86776" lon="5.70773">
        <ele>532</ele>
        <time>2011-07-03T09:18:21Z</time>
      </trkpt>
      <trkpt lat="44.86764" lon="5.70753">
        <ele>533</ele>
        <time>2011-07-03T09:18:52Z</time>
      </trkpt>
      <trkpt lat="44.86754" lon="5.70733">
        <ele>536</ele>
        <time>2011-07-03T09:19:27Z</time>
      </trkpt>
      <trkpt lat="44.8675" lon="5.7073">
        <ele>537</ele>
        <time>2011-07-03T09:19:38Z</time>
      </trkpt>
      <trkpt lat="44.86747" lon="5.70718">
        <ele>540</ele>
        <time>2011-07-03T09:20:00Z</time>
      </trkpt>
      <trkpt lat="44.86743" lon="5.70713">
        <ele>540</ele>
        <time>2011-07-03T09:20:03Z</time>
      </trkpt>
      <trkpt lat="44.86736" lon="5.70696">
        <ele>544</ele>
        <time>2011-07-03T09:20:38Z</time>
      </trkpt>
      <trkpt lat="44.86737" lon="5.70683">
        <ele>548</ele>
        <time>2011-07-03T09:20:59Z</time>
      </trkpt>
      <trkpt lat="44.86732" lon="5.70658">
        <ele>554</ele>
        <time>2011-07-03T09:21:30Z</time>
      </trkpt>
      <trkpt lat="44.86726" lon="5.70647">
        <ele>558</ele>
        <time>2011-07-03T09:21:51Z</time>
      </trkpt>
      <trkpt lat="44.86721" lon="5.70612">
        <ele>566</ele>
        <time>2011-07-03T09:22:23Z</time>
      </trkpt>
      <trkpt lat="44.8672" lon="5.70599">
        <ele>571</ele>
        <time>2011-07-03T09:22:46Z</time>
      </trkpt>
      <trkpt lat="44.86713" lon="5.70598">
        <ele>573</ele>
        <time>2011-07-03T09:23:03Z</time>
      </trkpt>
      <trkpt lat="44.86712" lon="5.70605">
        <ele>574</ele>
        <time>2011-07-03T09:23:12Z</time>
      </trkpt>
      <trkpt lat="44.8671" lon="5.70612">
        <ele>575</ele>
        <time>2011-07-03T09:23:23Z</time>
      </trkpt>
      <trkpt lat="44.86711" lon="5.70625">
        <ele>576</ele>
        <time>2011-07-03T09:23:31Z</time>
      </trkpt>
      <trkpt lat="44.86707" lon="5.70638">
        <ele>577</ele>
        <time>2011-07-03T09:23:37Z</time>
      </trkpt>
      <trkpt lat="44.86709" lon="5.70652">
        <ele>580</ele>
        <time>2011-07-03T09:23:49Z</time>
      </trkpt>
      <trkpt lat="44.86706" lon="5.7068">
        <ele>583</ele>
        <time>2011-07-03T09:24:03Z</time>
      </trkpt>
      <trkpt lat="44.86711" lon="5.70703">
        <ele>586</ele>
        <time>2011-07-03T09:24:25Z</time>
      </trkpt>
      <trkpt lat="44.86714" lon="5.70732">
        <ele>588</ele>
        <time>2011-07-03T09:24:39Z</time>
      </trkpt>
      <trkpt lat="44.86719" lon="5.70738">
        <ele>586</ele>
        <time>2011-07-03T09:25:36Z</time>
      </trkpt>
      <trkpt lat="44.86721" lon="5.70753">
        <ele>586</ele>
        <time>2011-07-03T09:25:42Z</time>
      </trkpt>
      <trkpt lat="44.86719" lon="5.70759">
        <ele>586</ele>
        <time>2011-07-03T09:25:54Z</time>
      </trkpt>
      <trkpt lat="44.86719" lon="5.70751">
        <ele>579</ele>
        <time>2011-07-03T09:27:47Z</time>
      </trkpt>
      <trkpt lat="44.86702" lon="5.70699">
        <ele>583</ele>
        <time>2011-07-03T09:28:23Z</time>
      </trkpt>
      <trkpt lat="44.86689" lon="5.70667">
        <ele>586</ele>
        <time>2011-07-03T09:29:01Z</time>
      </trkpt>
      <trkpt lat="44.86684" lon="5.70614">
        <ele>593</ele>
        <time>2011-07-03T09:29:33Z</time>
      </trkpt>
      <trkpt lat="44.86676" lon="5.70561">
        <ele>601</ele>
        <time>2011-07-03T09:30:05Z</time>
      </trkpt>
      <trkpt lat="44.86672" lon="5.70539">
        <ele>603</ele>
        <time>2011-07-03T09:30:15Z</time>
      </trkpt>
      <trkpt lat="44.86663" lon="5.70528">
        <ele>603</ele>
        <time>2011-07-03T09:30:21Z</time>
      </trkpt>
      <trkpt lat="44.86642" lon="5.70526">
        <ele>604</ele>
        <time>2011-07-03T09:30:33Z</time>
      </trkpt>
      <trkpt lat="44.86602" lon="5.70554">
        <ele>608</ele>
        <time>2011-07-03T09:31:08Z</time>
      </trkpt>
      <trkpt lat="44.86584" lon="5.70585">
        <ele>612</ele>
        <time>2011-07-03T09:31:40Z</time>
      </trkpt>
      <trkpt lat="44.86567" lon="5.706">
        <ele>615</ele>
        <time>2011-07-03T09:31:56Z</time>
      </trkpt>
      <trkpt lat="44.86555" lon="5.7063">
        <ele>619</ele>
        <time>2011-07-03T09:32:32Z</time>
      </trkpt>
      <trkpt lat="44.86558" lon="5.70643">
        <ele>620</ele>
        <time>2011-07-03T09:32:49Z</time>
      </trkpt>
      <trkpt lat="44.86555" lon="5.70648">
        <ele>621</ele>
        <time>2011-07-03T09:32:57Z</time>
      </trkpt>
      <trkpt lat="44.86545" lon="5.70653">
        <ele>624</ele>
        <time>2011-07-03T09:33:16Z</time>
      </trkpt>
      <trkpt lat="44.86544" lon="5.70657">
        <ele>625</ele>
        <time>2011-07-03T09:33:28Z</time>
      </trkpt>
      <trkpt lat="44.86543" lon="5.70664">
        <ele>626</ele>
        <time>2011-07-03T09:33:35Z</time>
      </trkpt>
      <trkpt lat="44.86533" lon="5.70679">
        <ele>630</ele>
        <time>2011-07-03T09:34:00Z</time>
      </trkpt>
      <trkpt lat="44.86514" lon="5.70693">
        <ele>632</ele>
        <time>2011-07-03T09:34:15Z</time>
      </trkpt>
      <trkpt lat="44.86513" lon="5.70709">
        <ele>632</ele>
        <time>2011-07-03T09:34:21Z</time>
      </trkpt>
      <trkpt lat="44.86513" lon="5.70722">
        <ele>633</ele>
        <time>2011-07-03T09:34:36Z</time>
      </trkpt>
      <trkpt lat="44.86514" lon="5.70721">
        <ele>633</ele>
        <time>2011-07-03T09:35:25Z</time>
      </trkpt>
      <trkpt lat="44.86518" lon="5.70717">
        <ele>633</ele>
        <time>2011-07-03T09:35:29Z</time>
      </trkpt>
      <trkpt lat="44.86523" lon="5.70716">
        <ele>634</ele>
        <time>2011-07-03T09:35:47Z</time>
      </trkpt>
      <trkpt lat="44.86525" lon="5.70713">
        <ele>634</ele>
        <time>2011-07-03T09:36:28Z</time>
      </trkpt>
      <trkpt lat="44.86517" lon="5.70713">
        <ele>631</ele>
        <time>2011-07-03T09:36:43Z</time>
      </trkpt>
      <trkpt lat="44.86501" lon="5.70715">
        <ele>628</ele>
        <time>2011-07-03T09:37:04Z</time>
      </trkpt>
      <trkpt lat="44.86485" lon="5.70706">
        <ele>631</ele>
        <time>2011-07-03T09:37:22Z</time>
      </trkpt>
      <trkpt lat="44.86479" lon="5.70697">
        <ele>633</ele>
        <time>2011-07-03T09:37:30Z</time>
      </trkpt>
      <trkpt lat="44.86458" lon="5.70676">
        <ele>640</ele>
        <time>2011-07-03T09:37:54Z</time>
      </trkpt>
      <trkpt lat="44.86447" lon="5.70627">
        <ele>648</ele>
        <time>2011-07-03T09:38:27Z</time>
      </trkpt>
      <trkpt lat="44.86444" lon="5.70595">
        <ele>651</ele>
        <time>2011-07-03T09:38:43Z</time>
      </trkpt>
      <trkpt lat="44.86426" lon="5.70561">
        <ele>654</ele>
        <time>2011-07-03T09:39:04Z</time>
      </trkpt>
      <trkpt lat="44.86418" lon="5.70554">
        <ele>655</ele>
        <time>2011-07-03T09:39:12Z</time>
      </trkpt>
      <trkpt lat="44.8641" lon="5.70543">
        <ele>655</ele>
        <time>2011-07-03T09:39:20Z</time>
      </trkpt>
      <trkpt lat="44.86394" lon="5.7053">
        <ele>656</ele>
        <time>2011-07-03T09:39:37Z</time>
      </trkpt>
      <trkpt lat="44.86377" lon="5.70475">
        <ele>659</ele>
        <time>2011-07-03T09:40:20Z</time>
      </trkpt>
      <trkpt lat="44.86374" lon="5.70468">
        <ele>660</ele>
        <time>2011-07-03T09:40:29Z</time>
      </trkpt>
      <trkpt lat="44.86379" lon="5.70455">
        <ele>660</ele>
        <time>2011-07-03T09:40:47Z</time>
      </trkpt>
      <trkpt lat="44.86384" lon="5.70439">
        <ele>661</ele>
        <time>2011-07-03T09:41:17Z</time>
      </trkpt>
      <trkpt lat="44.86393" lon="5.70417">
        <ele>662</ele>
        <time>2011-07-03T09:41:45Z</time>
      </trkpt>
      <trkpt lat="44.86389" lon="5.70356">
        <ele>664</ele>
        <time>2011-07-03T09:42:20Z</time>
      </trkpt>
      <trkpt lat="44.86374" lon="5.70312">
        <ele>668</ele>
        <time>2011-07-03T09:42:55Z</time>
      </trkpt>
      <trkpt lat="44.86371" lon="5.70309">
        <ele>668</ele>
        <time>2011-07-03T09:43:07Z</time>
      </trkpt>
      <trkpt lat="44.86377" lon="5.70305">
        <ele>669</ele>
        <time>2011-07-03T09:43:19Z</time>
      </trkpt>
      <trkpt lat="44.86387" lon="5.703">
        <ele>670</ele>
        <time>2011-07-03T09:43:31Z</time>
      </trkpt>
      <trkpt lat="44.86408" lon="5.70258">
        <ele>672</ele>
        <time>2011-07-03T09:44:06Z</time>
      </trkpt>
      <trkpt lat="44.86405" lon="5.70262">
        <ele>674</ele>
        <time>2011-07-03T09:44:36Z</time>
      </trkpt>
      <trkpt lat="44.86401" lon="5.7026">
        <ele>674</ele>
        <time>2011-07-03T09:45:25Z</time>
      </trkpt>
      <trkpt lat="44.86399" lon="5.70255">
        <ele>674</ele>
        <time>2011-07-03T09:45:30Z</time>
      </trkpt>
      <trkpt lat="44.86385" lon="5.70245">
        <ele>674</ele>
        <time>2011-07-03T09:45:47Z</time>
      </trkpt>
      <trkpt lat="44.86358" lon="5.7023">
        <ele>674</ele>
        <time>2011-07-03T09:46:21Z</time>
      </trkpt>
      <trkpt lat="44.86353" lon="5.70221">
        <ele>674</ele>
        <time>2011-07-03T09:46:35Z</time>
      </trkpt>
      <trkpt lat="44.86353" lon="5.70212">
        <ele>674</ele>
        <time>2011-07-03T09:46:41Z</time>
      </trkpt>
      <trkpt lat="44.86355" lon="5.70199">
        <ele>675</ele>
        <time>2011-07-03T09:46:53Z</time>
      </trkpt>
      <trkpt lat="44.86344" lon="5.70147">
        <ele>676</ele>
        <time>2011-07-03T09:47:27Z</time>
      </trkpt>
      <trkpt lat="44.86342" lon="5.70134">
        <ele>676</ele>
        <time>2011-07-03T09:47:35Z</time>
      </trkpt>
      <trkpt lat="44.86339" lon="5.70113">
        <ele>675</ele>
        <time>2011-07-03T09:47:55Z</time>
      </trkpt>
      <trkpt lat="44.86347" lon="5.70089">
        <ele>676</ele>
        <time>2011-07-03T09:48:18Z</time>
      </trkpt>
      <trkpt lat="44.86363" lon="5.70037">
        <ele>678</ele>
        <time>2011-07-03T09:48:50Z</time>
      </trkpt>
      <trkpt lat="44.86377" lon="5.70013">
        <ele>678</ele>
        <time>2011-07-03T09:49:14Z</time>
      </trkpt>
      <trkpt lat="44.86376" lon="5.69999">
        <ele>678</ele>
        <time>2011-07-03T09:49:24Z</time>
      </trkpt>
      <trkpt lat="44.86391" lon="5.69951">
        <ele>678</ele>
        <time>2011-07-03T09:49:57Z</time>
      </trkpt>
      <trkpt lat="44.86395" lon="5.69939">
        <ele>677</ele>
        <time>2011-07-03T09:50:06Z</time>
      </trkpt>
      <trkpt lat="44.86396" lon="5.69925">
        <ele>677</ele>
        <time>2011-07-03T09:50:15Z</time>
      </trkpt>
      <trkpt lat="44.86388" lon="5.69908">
        <ele>674</ele>
        <time>2011-07-03T09:50:27Z</time>
      </trkpt>
      <trkpt lat="44.86385" lon="5.69903">
        <ele>673</ele>
        <time>2011-07-03T09:50:34Z</time>
      </trkpt>
      <trkpt lat="44.86358" lon="5.69903">
        <ele>670</ele>
        <time>2011-07-03T09:51:07Z</time>
      </trkpt>
      <trkpt lat="44.8635" lon="5.69908">
        <ele>669</ele>
        <time>2011-07-03T09:51:20Z</time>
      </trkpt>
      <trkpt lat="44.86346" lon="5.69911">
        <ele>669</ele>
        <time>2011-07-03T09:51:25Z</time>
      </trkpt>
      <trkpt lat="44.86339" lon="5.69907">
        <ele>671</ele>
        <time>2011-07-03T09:51:48Z</time>
      </trkpt>
      <trkpt lat="44.86318" lon="5.69862">
        <ele>675</ele>
        <time>2011-07-03T09:52:21Z</time>
      </trkpt>
      <trkpt lat="44.86302" lon="5.69807">
        <ele>677</ele>
        <time>2011-07-03T09:53:02Z</time>
      </trkpt>
      <trkpt lat="44.86284" lon="5.69767">
        <ele>676</ele>
        <time>2011-07-03T09:53:33Z</time>
      </trkpt>
      <trkpt lat="44.86282" lon="5.6975">
        <ele>676</ele>
        <time>2011-07-03T09:53:45Z</time>
      </trkpt>
      <trkpt lat="44.8628" lon="5.69743">
        <ele>677</ele>
        <time>2011-07-03T09:53:57Z</time>
      </trkpt>
      <trkpt lat="44.86277" lon="5.69739">
        <ele>677</ele>
        <time>2011-07-03T09:53:59Z</time>
      </trkpt>
      <trkpt lat="44.86273" lon="5.69734">
        <ele>676</ele>
        <time>2011-07-03T09:54:07Z</time>
      </trkpt>
      <trkpt lat="44.86269" lon="5.69714">
        <ele>676</ele>
        <time>2011-07-03T09:54:39Z</time>
      </trkpt>
      <trkpt lat="44.86266" lon="5.69695">
        <ele>676</ele>
        <time>2011-07-03T09:55:15Z</time>
      </trkpt>
      <trkpt lat="44.86274" lon="5.69651">
        <ele>676</ele>
        <time>2011-07-03T09:55:48Z</time>
      </trkpt>
      <trkpt lat="44.86283" lon="5.69609">
        <ele>678</ele>
        <time>2011-07-03T09:56:18Z</time>
      </trkpt>
      <trkpt lat="44.86297" lon="5.69561">
        <ele>680</ele>
        <time>2011-07-03T09:56:49Z</time>
      </trkpt>
      <trkpt lat="44.86302" lon="5.69532">
        <ele>680</ele>
        <time>2011-07-03T09:57:10Z</time>
      </trkpt>
      <trkpt lat="44.86303" lon="5.69528">
        <ele>681</ele>
        <time>2011-07-03T09:57:24Z</time>
      </trkpt>
      <trkpt lat="44.86303" lon="5.69525">
        <ele>681</ele>
        <time>2011-07-03T09:57:46Z</time>
      </trkpt>
      <trkpt lat="44.86311" lon="5.6951">
        <ele>680</ele>
        <time>2011-07-03T09:58:04Z</time>
      </trkpt>
      <trkpt lat="44.86323" lon="5.69497">
        <ele>680</ele>
        <time>2011-07-03T09:58:27Z</time>
      </trkpt>
      <trkpt lat="44.86333" lon="5.69495">
        <ele>680</ele>
        <time>2011-07-03T09:58:38Z</time>
      </trkpt>
      <trkpt lat="44.86345" lon="5.69475">
        <ele>679</ele>
        <time>2011-07-03T09:59:01Z</time>
      </trkpt>
      <trkpt lat="44.86369" lon="5.69403">
        <ele>677</ele>
        <time>2011-07-03T09:59:34Z</time>
      </trkpt>
      <trkpt lat="44.86365" lon="5.69391">
        <ele>676</ele>
        <time>2011-07-03T09:59:45Z</time>
      </trkpt>
      <trkpt lat="44.86349" lon="5.69351">
        <ele>679</ele>
        <time>2011-07-03T10:00:18Z</time>
      </trkpt>
      <trkpt lat="44.86346" lon="5.69345">
        <ele>679</ele>
        <time>2011-07-03T10:00:24Z</time>
      </trkpt>
      <trkpt lat="44.86347" lon="5.69325">
        <ele>680</ele>
        <time>2011-07-03T10:00:41Z</time>
      </trkpt>
      <trkpt lat="44.86356" lon="5.69295">
        <ele>681</ele>
        <time>2011-07-03T10:01:09Z</time>
      </trkpt>
      <trkpt lat="44.86356" lon="5.69287">
        <ele>681</ele>
        <time>2011-07-03T10:01:22Z</time>
      </trkpt>
      <trkpt lat="44.8637" lon="5.69265">
        <ele>681</ele>
        <time>2011-07-03T10:01:43Z</time>
      </trkpt>
      <trkpt lat="44.86409" lon="5.69224">
        <ele>681</ele>
        <time>2011-07-03T10:02:18Z</time>
      </trkpt>
      <trkpt lat="44.86439" lon="5.69192">
        <ele>678</ele>
        <time>2011-07-03T10:02:48Z</time>
      </trkpt>
      <trkpt lat="44.8648" lon="5.69158">
        <ele>673</ele>
        <time>2011-07-03T10:03:20Z</time>
      </trkpt>
      <trkpt lat="44.86508" lon="5.69119">
        <ele>670</ele>
        <time>2011-07-03T10:04:00Z</time>
      </trkpt>
      <trkpt lat="44.86523" lon="5.69088">
        <ele>669</ele>
        <time>2011-07-03T10:04:32Z</time>
      </trkpt>
      <trkpt lat="44.86526" lon="5.69062">
        <ele>668</ele>
        <time>2011-07-03T10:04:41Z</time>
      </trkpt>
      <trkpt lat="44.8653" lon="5.69056">
        <ele>668</ele>
        <time>2011-07-03T10:04:44Z</time>
      </trkpt>
      <trkpt lat="44.86529" lon="5.69043">
        <ele>667</ele>
        <time>2011-07-03T10:04:59Z</time>
      </trkpt>
      <trkpt lat="44.86521" lon="5.69036">
        <ele>667</ele>
        <time>2011-07-03T10:05:14Z</time>
      </trkpt>
      <trkpt lat="44.86483" lon="5.69005">
        <ele>670</ele>
        <time>2011-07-03T10:05:46Z</time>
      </trkpt>
      <trkpt lat="44.86453" lon="5.68977">
        <ele>670</ele>
        <time>2011-07-03T10:06:19Z</time>
      </trkpt>
      <trkpt lat="44.86426" lon="5.68944">
        <ele>671</ele>
        <time>2011-07-03T10:06:55Z</time>
      </trkpt>
      <trkpt lat="44.86412" lon="5.68935">
        <ele>672</ele>
        <time>2011-07-03T10:07:12Z</time>
      </trkpt>
      <trkpt lat="44.8641" lon="5.68928">
        <ele>673</ele>
        <time>2011-07-03T10:07:21Z</time>
      </trkpt>
      <trkpt lat="44.86406" lon="5.68926">
        <ele>673</ele>
        <time>2011-07-03T10:07:29Z</time>
      </trkpt>
      <trkpt lat="44.86401" lon="5.68924">
        <ele>674</ele>
        <time>2011-07-03T10:07:35Z</time>
      </trkpt>
      <trkpt lat="44.86399" lon="5.68917">
        <ele>674</ele>
        <time>2011-07-03T10:07:39Z</time>
      </trkpt>
      <trkpt lat="44.86397" lon="5.6891">
        <ele>674</ele>
        <time>2011-07-03T10:07:44Z</time>
      </trkpt>
      <trkpt lat="44.86394" lon="5.68905">
        <ele>676</ele>
        <time>2011-07-03T10:08:03Z</time>
      </trkpt>
      <trkpt lat="44.86389" lon="5.68905">
        <ele>676</ele>
        <time>2011-07-03T10:08:10Z</time>
      </trkpt>
      <trkpt lat="44.86385" lon="5.68897">
        <ele>678</ele>
        <time>2011-07-03T10:08:18Z</time>
      </trkpt>
      <trkpt lat="44.86379" lon="5.68889">
        <ele>680</ele>
        <time>2011-07-03T10:08:29Z</time>
      </trkpt>
      <trkpt lat="44.86375" lon="5.68892">
        <ele>681</ele>
        <time>2011-07-03T10:08:36Z</time>
      </trkpt>
      <trkpt lat="44.86361" lon="5.68893">
        <ele>686</ele>
        <time>2011-07-03T10:09:57Z</time>
      </trkpt>
      <trkpt lat="44.86357" lon="5.68893">
        <ele>691</ele>
        <time>2011-07-03T10:11:10Z</time>
      </trkpt>
      <trkpt lat="44.86329" lon="5.68908">
        <ele>696</ele>
        <time>2011-07-03T10:11:43Z</time>
      </trkpt>
      <trkpt lat="44.86302" lon="5.68927">
        <ele>700</ele>
        <time>2011-07-03T10:12:14Z</time>
      </trkpt>
      <trkpt lat="44.86278" lon="5.68926">
        <ele>702</ele>
        <time>2011-07-03T10:12:46Z</time>
      </trkpt>
      <trkpt lat="44.86248" lon="5.68927">
        <ele>705</ele>
        <time>2011-07-03T10:13:19Z</time>
      </trkpt>
      <trkpt lat="44.86243" lon="5.68925">
        <ele>705</ele>
        <time>2011-07-03T10:13:25Z</time>
      </trkpt>
      <trkpt lat="44.86245" lon="5.68918">
        <ele>707</ele>
        <time>2011-07-03T10:14:02Z</time>
      </trkpt>
      <trkpt lat="44.8624" lon="5.68899">
        <ele>707</ele>
        <time>2011-07-03T10:14:19Z</time>
      </trkpt>
      <trkpt lat="44.86247" lon="5.68895">
        <ele>707</ele>
        <time>2011-07-03T10:14:40Z</time>
      </trkpt>
      <trkpt lat="44.86253" lon="5.689">
        <ele>707</ele>
        <time>2011-07-03T10:14:44Z</time>
      </trkpt>
      <trkpt lat="44.86259" lon="5.68894">
        <ele>707</ele>
        <time>2011-07-03T10:14:54Z</time>
      </trkpt>
      <trkpt lat="44.86251" lon="5.68886">
        <ele>707</ele>
        <time>2011-07-03T10:15:09Z</time>
      </trkpt>
      <trkpt lat="44.86252" lon="5.68885">
        <ele>707</ele>
        <time>2011-07-03T10:15:40Z</time>
      </trkpt>
      <trkpt lat="44.86262" lon="5.68886">
        <ele>708</ele>
        <time>2011-07-03T10:15:52Z</time>
      </trkpt>
      <trkpt lat="44.86289" lon="5.6887">
        <ele>708</ele>
        <time>2011-07-03T10:16:17Z</time>
      </trkpt>
      <trkpt lat="44.86314" lon="5.68854">
        <ele>706</ele>
        <time>2011-07-03T10:16:53Z</time>
      </trkpt>
      <trkpt lat="44.8633" lon="5.68838">
        <ele>706</ele>
        <time>2011-07-03T10:17:02Z</time>
      </trkpt>
      <trkpt lat="44.86345" lon="5.68816">
        <ele>704</ele>
        <time>2011-07-03T10:17:19Z</time>
      </trkpt>
      <trkpt lat="44.86371" lon="5.68781">
        <ele>697</ele>
        <time>2011-07-03T10:18:00Z</time>
      </trkpt>
      <trkpt lat="44.86403" lon="5.68749">
        <ele>692</ele>
        <time>2011-07-03T10:18:37Z</time>
      </trkpt>
      <trkpt lat="44.86407" lon="5.6874">
        <ele>689</ele>
        <time>2011-07-03T10:18:53Z</time>
      </trkpt>
      <trkpt lat="44.86421" lon="5.68728">
        <ele>686</ele>
        <time>2011-07-03T10:19:08Z</time>
      </trkpt>
      <trkpt lat="44.86444" lon="5.68667">
        <ele>683</ele>
        <time>2011-07-03T10:19:40Z</time>
      </trkpt>
      <trkpt lat="44.86448" lon="5.68649">
        <ele>681</ele>
        <time>2011-07-03T10:20:02Z</time>
      </trkpt>
      <trkpt lat="44.86456" lon="5.68607">
        <ele>683</ele>
        <time>2011-07-03T10:20:17Z</time>
      </trkpt>
      <trkpt lat="44.86452" lon="5.68598">
        <ele>682</ele>
        <time>2011-07-03T10:20:34Z</time>
      </trkpt>
      <trkpt lat="44.86449" lon="5.68566">
        <ele>680</ele>
        <time>2011-07-03T10:20:56Z</time>
      </trkpt>
      <trkpt lat="44.86454" lon="5.6855">
        <ele>678</ele>
        <time>2011-07-03T10:21:12Z</time>
      </trkpt>
      <trkpt lat="44.86469" lon="5.68521">
        <ele>677</ele>
        <time>2011-07-03T10:21:48Z</time>
      </trkpt>
      <trkpt lat="44.86498" lon="5.68435">
        <ele>675</ele>
        <time>2011-07-03T10:22:34Z</time>
      </trkpt>
      <trkpt lat="44.86502" lon="5.68421">
        <ele>674</ele>
        <time>2011-07-03T10:22:43Z</time>
      </trkpt>
      <trkpt lat="44.86509" lon="5.68413">
        <ele>674</ele>
        <time>2011-07-03T10:22:49Z</time>
      </trkpt>
      <trkpt lat="44.86523" lon="5.68408">
        <ele>674</ele>
        <time>2011-07-03T10:23:08Z</time>
      </trkpt>
      <trkpt lat="44.86543" lon="5.68394">
        <ele>671</ele>
        <time>2011-07-03T10:23:34Z</time>
      </trkpt>
      <trkpt lat="44.86575" lon="5.68333">
        <ele>666</ele>
        <time>2011-07-03T10:24:09Z</time>
      </trkpt>
      <trkpt lat="44.86585" lon="5.68331">
        <ele>664</ele>
        <time>2011-07-03T10:24:20Z</time>
      </trkpt>
      <trkpt lat="44.86604" lon="5.68326">
        <ele>663</ele>
        <time>2011-07-03T10:24:47Z</time>
      </trkpt>
      <trkpt lat="44.86609" lon="5.68314">
        <ele>663</ele>
        <time>2011-07-03T10:24:51Z</time>
      </trkpt>
      <trkpt lat="44.86625" lon="5.6828">
        <ele>663</ele>
        <time>2011-07-03T10:25:22Z</time>
      </trkpt>
      <trkpt lat="44.86628" lon="5.68267">
        <ele>664</ele>
        <time>2011-07-03T10:25:44Z</time>
      </trkpt>
      <trkpt lat="44.86632" lon="5.68269">
        <ele>664</ele>
        <time>2011-07-03T10:25:54Z</time>
      </trkpt>
      <trkpt lat="44.8664" lon="5.68277">
        <ele>664</ele>
        <time>2011-07-03T10:26:04Z</time>
      </trkpt>
      <trkpt lat="44.86637" lon="5.68285">
        <ele>664</ele>
        <time>2011-07-03T10:26:26Z</time>
      </trkpt>
      <trkpt lat="44.8664" lon="5.68292">
        <ele>664</ele>
        <time>2011-07-03T10:27:03Z</time>
      </trkpt>
      <trkpt lat="44.86642" lon="5.68297">
        <ele>663</ele>
        <time>2011-07-03T10:27:24Z</time>
      </trkpt>
      <trkpt lat="44.86646" lon="5.68302">
        <ele>663</ele>
        <time>2011-07-03T10:28:14Z</time>
      </trkpt>
      <trkpt lat="44.86646" lon="5.683">
        <ele>662</ele>
        <time>2011-07-03T10:28:38Z</time>
      </trkpt>
      <trkpt lat="44.86647" lon="5.68303">
        <ele>662</ele>
        <time>2011-07-03T10:30:26Z</time>
      </trkpt>
      <trkpt lat="44.86656" lon="5.68301">
        <ele>662</ele>
        <time>2011-07-03T10:30:57Z</time>
      </trkpt>
      <trkpt lat="44.86653" lon="5.68288">
        <ele>662</ele>
        <time>2011-07-03T10:31:04Z</time>
      </trkpt>
      <trkpt lat="44.86657" lon="5.68288">
        <ele>663</ele>
        <time>2011-07-03T10:31:39Z</time>
      </trkpt>
      <trkpt lat="44.86652" lon="5.68303">
        <ele>664</ele>
        <time>2011-07-03T10:32:05Z</time>
      </trkpt>
      <trkpt lat="44.86647" lon="5.68292">
        <ele>664</ele>
        <time>2011-07-03T10:32:15Z</time>
      </trkpt>
      <trkpt lat="44.86641" lon="5.68299">
        <ele>665</ele>
        <time>2011-07-03T10:32:43Z</time>
      </trkpt>
      <trkpt lat="44.86646" lon="5.68299">
        <ele>666</ele>
        <time>2011-07-03T10:32:53Z</time>
      </trkpt>
      <trkpt lat="44.8665" lon="5.68298">
        <ele>667</ele>
        <time>2011-07-03T10:33:00Z</time>
      </trkpt>
      <trkpt lat="44.86649" lon="5.68294">
        <ele>667</ele>
        <time>2011-07-03T10:35:19Z</time>
      </trkpt>
      <trkpt lat="44.86649" lon="5.68298">
        <ele>665</ele>
        <time>2011-07-03T10:36:26Z</time>
      </trkpt>
      <trkpt lat="44.86654" lon="5.68299">
        <ele>664</ele>
        <time>2011-07-03T10:36:35Z</time>
      </trkpt>
      <trkpt lat="44.86657" lon="5.68295">
        <ele>664</ele>
        <time>2011-07-03T10:36:45Z</time>
      </trkpt>
      <trkpt lat="44.86654" lon="5.68294">
        <ele>662</ele>
        <time>2011-07-03T10:37:32Z</time>
      </trkpt>
      <trkpt lat="44.86649" lon="5.68293">
        <ele>662</ele>
        <time>2011-07-03T10:37:48Z</time>
      </trkpt>
      <trkpt lat="44.86648" lon="5.68287">
        <ele>662</ele>
        <time>2011-07-03T10:37:59Z</time>
      </trkpt>
      <trkpt lat="44.86651" lon="5.68299">
        <ele>661</ele>
        <time>2011-07-03T10:38:19Z</time>
      </trkpt>
      <trkpt lat="44.86649" lon="5.683">
        <ele>661</ele>
        <time>2011-07-03T10:38:43Z</time>
      </trkpt>
      <trkpt lat="44.86651" lon="5.68299">
        <ele>660</ele>
        <time>2011-07-03T10:39:33Z</time>
      </trkpt>
      <trkpt lat="44.86661" lon="5.68303">
        <ele>660</ele>
        <time>2011-07-03T10:39:38Z</time>
      </trkpt>
      <trkpt lat="44.86661" lon="5.68291">
        <ele>660</ele>
        <time>2011-07-03T10:39:51Z</time>
      </trkpt>
      <trkpt lat="44.8666" lon="5.68284">
        <ele>660</ele>
        <time>2011-07-03T10:39:52Z</time>
      </trkpt>
      <trkpt lat="44.86655" lon="5.68293">
        <ele>659</ele>
        <time>2011-07-03T10:40:25Z</time>
      </trkpt>
      <trkpt lat="44.86655" lon="5.68299">
        <ele>659</ele>
        <time>2011-07-03T10:40:32Z</time>
      </trkpt>
      <trkpt lat="44.86652" lon="5.68298">
        <ele>660</ele>
        <time>2011-07-03T10:41:58Z</time>
      </trkpt>
      <trkpt lat="44.86654" lon="5.68296">
        <ele>661</ele>
        <time>2011-07-03T10:42:33Z</time>
      </trkpt>
      <trkpt lat="44.86655" lon="5.683">
        <ele>661</ele>
        <time>2011-07-03T10:42:55Z</time>
      </trkpt>
      <trkpt lat="44.86656" lon="5.68308">
        <ele>663</ele>
        <time>2011-07-03T10:43:55Z</time>
      </trkpt>
      <trkpt lat="44.86654" lon="5.68305">
        <ele>664</ele>
        <time>2011-07-03T10:44:27Z</time>
      </trkpt>
      <trkpt lat="44.86658" lon="5.68302">
        <ele>664</ele>
        <time>2011-07-03T10:44:33Z</time>
      </trkpt>
      <trkpt lat="44.86654" lon="5.68297">
        <ele>664</ele>
        <time>2011-07-03T10:44:42Z</time>
      </trkpt>
      <trkpt lat="44.86649" lon="5.68297">
        <ele>664</ele>
        <time>2011-07-03T10:44:51Z</time>
      </trkpt>
      <trkpt lat="44.86648" lon="5.68303">
        <ele>663</ele>
        <time>2011-07-03T10:45:17Z</time>
      </trkpt>
      <trkpt lat="44.86643" lon="5.68301">
        <ele>663</ele>
        <time>2011-07-03T10:45:21Z</time>
      </trkpt>
      <trkpt lat="44.86641" lon="5.68299">
        <ele>663</ele>
        <time>2011-07-03T10:45:32Z</time>
      </trkpt>
      <trkpt lat="44.86642" lon="5.68292">
        <ele>663</ele>
        <time>2011-07-03T10:45:39Z</time>
      </trkpt>
      <trkpt lat="44.86647" lon="5.68291">
        <ele>662</ele>
        <time>2011-07-03T10:45:55Z</time>
      </trkpt>
      <trkpt lat="44.86647" lon="5.68306">
        <ele>662</ele>
        <time>2011-07-03T10:46:15Z</time>
      </trkpt>
      <trkpt lat="44.86645" lon="5.68305">
        <ele>665</ele>
        <time>2011-07-03T10:46:41Z</time>
      </trkpt>
      <trkpt lat="44.86654" lon="5.68309">
        <ele>665</ele>
        <time>2011-07-03T10:47:19Z</time>
      </trkpt>
      <trkpt lat="44.86655" lon="5.68303">
        <ele>666</ele>
        <time>2011-07-03T10:47:59Z</time>
      </trkpt>
      <trkpt lat="44.86663" lon="5.683">
        <ele>669</ele>
        <time>2011-07-03T10:48:29Z</time>
      </trkpt>
      <trkpt lat="44.86661" lon="5.68303">
        <ele>671</ele>
        <time>2011-07-03T10:50:17Z</time>
      </trkpt>
      <trkpt lat="44.86656" lon="5.68305">
        <ele>671</ele>
        <time>2011-07-03T10:50:19Z</time>
      </trkpt>
      <trkpt lat="44.86656" lon="5.68293">
        <ele>672</ele>
        <time>2011-07-03T10:50:41Z</time>
      </trkpt>
      <trkpt lat="44.86661" lon="5.68293">
        <ele>672</ele>
        <time>2011-07-03T10:50:51Z</time>
      </trkpt>
      <trkpt lat="44.86659" lon="5.68307">
        <ele>673</ele>
        <time>2011-07-03T10:50:59Z</time>
      </trkpt>
      <trkpt lat="44.86654" lon="5.68297">
        <ele>673</ele>
        <time>2011-07-03T10:51:32Z</time>
      </trkpt>
      <trkpt lat="44.86644" lon="5.68299">
        <ele>673</ele>
        <time>2011-07-03T10:51:42Z</time>
      </trkpt>
      <trkpt lat="44.86648" lon="5.68295">
        <ele>672</ele>
        <time>2011-07-03T10:52:03Z</time>
      </trkpt>
      <trkpt lat="44.86657" lon="5.68299">
        <ele>671</ele>
        <time>2011-07-03T10:52:17Z</time>
      </trkpt>
      <trkpt lat="44.86659" lon="5.68295">
        <ele>670</ele>
        <time>2011-07-03T10:53:11Z</time>
      </trkpt>
      <trkpt lat="44.86661" lon="5.68302">
        <ele>670</ele>
        <time>2011-07-03T10:53:25Z</time>
      </trkpt>
      <trkpt lat="44.86658" lon="5.68303">
        <ele>670</ele>
        <time>2011-07-03T10:53:58Z</time>
      </trkpt>
      <trkpt lat="44.86654" lon="5.68303">
        <ele>670</ele>
        <time>2011-07-03T10:54:00Z</time>
      </trkpt>
      <trkpt lat="44.86652" lon="5.68298">
        <ele>670</ele>
        <time>2011-07-03T10:54:36Z</time>
      </trkpt>
      <trkpt lat="44.86647" lon="5.68298">
        <ele>670</ele>
        <time>2011-07-03T10:54:42Z</time>
      </trkpt>
      <trkpt lat="44.86648" lon="5.68291">
        <ele>670</ele>
        <time>2011-07-03T10:54:54Z</time>
      </trkpt>
      <trkpt lat="44.86648" lon="5.68291">
        <ele>670</ele>
        <time>2011-07-03T10:54:58Z</time>
      </trkpt>
      <trkpt lat="44.86666" lon="5.68312">
        <ele>639</ele>
        <time>2011-07-03T11:04:38Z</time>
      </trkpt>
      <trkpt lat="44.86687" lon="5.68319">
        <ele>639</ele>
        <time>2011-07-03T11:04:58Z</time>
      </trkpt>
      <trkpt lat="44.86676" lon="5.68315">
        <ele>639</ele>
        <time>2011-07-03T11:05:10Z</time>
      </trkpt>
      <trkpt lat="44.86657" lon="5.68307">
        <ele>640</ele>
        <time>2011-07-03T11:05:30Z</time>
      </trkpt>
      <trkpt lat="44.86654" lon="5.68311">
        <ele>642</ele>
        <time>2011-07-03T11:05:52Z</time>
      </trkpt>
      <trkpt lat="44.86648" lon="5.68311">
        <ele>642</ele>
        <time>2011-07-03T11:06:02Z</time>
      </trkpt>
      <trkpt lat="44.86645" lon="5.68306">
        <ele>642</ele>
        <time>2011-07-03T11:06:04Z</time>
      </trkpt>
      <trkpt lat="44.86649" lon="5.68292">
        <ele>645</ele>
        <time>2011-07-03T11:06:33Z</time>
      </trkpt>
      <trkpt lat="44.86647" lon="5.68297">
        <ele>647</ele>
        <time>2011-07-03T11:07:05Z</time>
      </trkpt>
      <trkpt lat="44.86639" lon="5.68294">
        <ele>648</ele>
        <time>2011-07-03T11:07:13Z</time>
      </trkpt>
      <trkpt lat="44.86642" lon="5.68291">
        <ele>648</ele>
        <time>2011-07-03T11:07:32Z</time>
      </trkpt>
      <trkpt lat="44.86647" lon="5.68293">
        <ele>649</ele>
        <time>2011-07-03T11:07:37Z</time>
      </trkpt>
      <trkpt lat="44.86651" lon="5.68286">
        <ele>660</ele>
        <time>2011-07-03T11:09:07Z</time>
      </trkpt>
      <trkpt lat="44.8667" lon="5.68305">
        <ele>661</ele>
        <time>2011-07-03T11:09:22Z</time>
      </trkpt>
      <trkpt lat="44.86664" lon="5.683">
        <ele>662</ele>
        <time>2011-07-03T11:09:50Z</time>
      </trkpt>
      <trkpt lat="44.86656" lon="5.68309">
        <ele>663</ele>
        <time>2011-07-03T11:10:02Z</time>
      </trkpt>
      <trkpt lat="44.86652" lon="5.68294">
        <ele>663</ele>
        <time>2011-07-03T11:10:46Z</time>
      </trkpt>
      <trkpt lat="44.86652" lon="5.68301">
        <ele>662</ele>
        <time>2011-07-03T11:11:38Z</time>
      </trkpt>
      <trkpt lat="44.86648" lon="5.68297">
        <ele>657</ele>
        <time>2011-07-03T11:12:32Z</time>
      </trkpt>
      <trkpt lat="44.8664" lon="5.68293">
        <ele>656</ele>
        <time>2011-07-03T11:12:50Z</time>
      </trkpt>
      <trkpt lat="44.86642" lon="5.68299">
        <ele>655</ele>
        <time>2011-07-03T11:13:05Z</time>
      </trkpt>
      <trkpt lat="44.86643" lon="5.68291">
        <ele>651</ele>
        <time>2011-07-03T11:14:14Z</time>
      </trkpt>
      <trkpt lat="44.8665" lon="5.68299">
        <ele>651</ele>
        <time>2011-07-03T11:15:03Z</time>
      </trkpt>
      <trkpt lat="44.86648" lon="5.68304">
        <ele>654</ele>
        <time>2011-07-03T11:15:37Z</time>
      </trkpt>
      <trkpt lat="44.86645" lon="5.683">
        <ele>654</ele>
        <time>2011-07-03T11:15:43Z</time>
      </trkpt>
      <trkpt lat="44.86645" lon="5.68289">
        <ele>655</ele>
        <time>2011-07-03T11:16:02Z</time>
      </trkpt>
      <trkpt lat="44.86645" lon="5.68274">
        <ele>656</ele>
        <time>2011-07-03T11:17:14Z</time>
      </trkpt>
      <trkpt lat="44.86648" lon="5.68261">
        <ele>655</ele>
        <time>2011-07-03T11:17:56Z</time>
      </trkpt>
      <trkpt lat="44.86648" lon="5.68254">
        <ele>655</ele>
        <time>2011-07-03T11:18:01Z</time>
      </trkpt>
      <trkpt lat="44.86653" lon="5.6824">
        <ele>653</ele>
        <time>2011-07-03T11:18:23Z</time>
      </trkpt>
      <trkpt lat="44.86675" lon="5.68219">
        <ele>651</ele>
        <time>2011-07-03T11:18:49Z</time>
      </trkpt>
      <trkpt lat="44.86674" lon="5.68207">
        <ele>649</ele>
        <time>2011-07-03T11:18:58Z</time>
      </trkpt>
      <trkpt lat="44.86681" lon="5.68198">
        <ele>647</ele>
        <time>2011-07-03T11:19:11Z</time>
      </trkpt>
      <trkpt lat="44.86683" lon="5.68184">
        <ele>646</ele>
        <time>2011-07-03T11:19:19Z</time>
      </trkpt>
      <trkpt lat="44.86686" lon="5.68171">
        <ele>646</ele>
        <time>2011-07-03T11:19:29Z</time>
      </trkpt>
      <trkpt lat="44.86687" lon="5.6816">
        <ele>647</ele>
        <time>2011-07-03T11:19:47Z</time>
      </trkpt>
      <trkpt lat="44.86682" lon="5.68147">
        <ele>647</ele>
        <time>2011-07-03T11:19:54Z</time>
      </trkpt>
      <trkpt lat="44.86687" lon="5.68137">
        <ele>645</ele>
        <time>2011-07-03T11:20:13Z</time>
      </trkpt>
      <trkpt lat="44.86698" lon="5.68124">
        <ele>642</ele>
        <time>2011-07-03T11:20:34Z</time>
      </trkpt>
      <trkpt lat="44.86714" lon="5.6811">
        <ele>641</ele>
        <time>2011-07-03T11:20:48Z</time>
      </trkpt>
      <trkpt lat="44.86723" lon="5.68085">
        <ele>640</ele>
        <time>2011-07-03T11:21:06Z</time>
      </trkpt>
      <trkpt lat="44.86723" lon="5.68071">
        <ele>639</ele>
        <time>2011-07-03T11:21:12Z</time>
      </trkpt>
      <trkpt lat="44.86728" lon="5.6806">
        <ele>638</ele>
        <time>2011-07-03T11:21:18Z</time>
      </trkpt>
      <trkpt lat="44.86735" lon="5.68021">
        <ele>637</ele>
        <time>2011-07-03T11:21:36Z</time>
      </trkpt>
      <trkpt lat="44.86764" lon="5.67984">
        <ele>630</ele>
        <time>2011-07-03T11:22:12Z</time>
      </trkpt>
      <trkpt lat="44.86785" lon="5.67943">
        <ele>629</ele>
        <time>2011-07-03T11:22:35Z</time>
      </trkpt>
      <trkpt lat="44.86794" lon="5.67938">
        <ele>628</ele>
        <time>2011-07-03T11:22:41Z</time>
      </trkpt>
      <trkpt lat="44.86805" lon="5.67916">
        <ele>630</ele>
        <time>2011-07-03T11:23:00Z</time>
      </trkpt>
      <trkpt lat="44.86804" lon="5.67904">
        <ele>630</ele>
        <time>2011-07-03T11:23:08Z</time>
      </trkpt>
      <trkpt lat="44.8681" lon="5.67893">
        <ele>630</ele>
        <time>2011-07-03T11:23:14Z</time>
      </trkpt>
      <trkpt lat="44.86819" lon="5.67885">
        <ele>629</ele>
        <time>2011-07-03T11:23:21Z</time>
      </trkpt>
      <trkpt lat="44.86825" lon="5.67875">
        <ele>629</ele>
        <time>2011-07-03T11:23:28Z</time>
      </trkpt>
      <trkpt lat="44.86828" lon="5.67856">
        <ele>628</ele>
        <time>2011-07-03T11:23:40Z</time>
      </trkpt>
      <trkpt lat="44.86837" lon="5.67854">
        <ele>628</ele>
        <time>2011-07-03T11:23:52Z</time>
      </trkpt>
      <trkpt lat="44.86841" lon="5.67844">
        <ele>626</ele>
        <time>2011-07-03T11:24:10Z</time>
      </trkpt>
      <trkpt lat="44.86844" lon="5.67846">
        <ele>621</ele>
        <time>2011-07-03T11:24:44Z</time>
      </trkpt>
      <trkpt lat="44.8685" lon="5.67826">
        <ele>616</ele>
        <time>2011-07-03T11:25:05Z</time>
      </trkpt>
      <trkpt lat="44.86862" lon="5.67796">
        <ele>614</ele>
        <time>2011-07-03T11:25:25Z</time>
      </trkpt>
      <trkpt lat="44.86885" lon="5.67752">
        <ele>616</ele>
        <time>2011-07-03T11:26:05Z</time>
      </trkpt>
      <trkpt lat="44.86903" lon="5.67718">
        <ele>619</ele>
        <time>2011-07-03T11:26:29Z</time>
      </trkpt>
      <trkpt lat="44.86906" lon="5.67705">
        <ele>618</ele>
        <time>2011-07-03T11:26:36Z</time>
      </trkpt>
      <trkpt lat="44.86907" lon="5.6769">
        <ele>617</ele>
        <time>2011-07-03T11:26:42Z</time>
      </trkpt>
      <trkpt lat="44.86912" lon="5.67675">
        <ele>617</ele>
        <time>2011-07-03T11:26:48Z</time>
      </trkpt>
      <trkpt lat="44.86917" lon="5.67668">
        <ele>616</ele>
        <time>2011-07-03T11:26:52Z</time>
      </trkpt>
      <trkpt lat="44.86926" lon="5.67665">
        <ele>615</ele>
        <time>2011-07-03T11:27:01Z</time>
      </trkpt>
      <trkpt lat="44.86929" lon="5.67659">
        <ele>615</ele>
        <time>2011-07-03T11:27:06Z</time>
      </trkpt>
      <trkpt lat="44.86939" lon="5.67638">
        <ele>614</ele>
        <time>2011-07-03T11:27:19Z</time>
      </trkpt>
      <trkpt lat="44.86957" lon="5.67601">
        <ele>613</ele>
        <time>2011-07-03T11:27:53Z</time>
      </trkpt>
      <trkpt lat="44.86959" lon="5.67588">
        <ele>613</ele>
        <time>2011-07-03T11:28:00Z</time>
      </trkpt>
      <trkpt lat="44.86957" lon="5.67574">
        <ele>613</ele>
        <time>2011-07-03T11:28:10Z</time>
      </trkpt>
      <trkpt lat="44.86959" lon="5.67547">
        <ele>615</ele>
        <time>2011-07-03T11:28:33Z</time>
      </trkpt>
      <trkpt lat="44.86964" lon="5.67535">
        <ele>616</ele>
        <time>2011-07-03T11:28:41Z</time>
      </trkpt>
      <trkpt lat="44.8697" lon="5.67523">
        <ele>616</ele>
        <time>2011-07-03T11:28:51Z</time>
      </trkpt>
      <trkpt lat="44.86996" lon="5.67482">
        <ele>616</ele>
        <time>2011-07-03T11:29:24Z</time>
      </trkpt>
      <trkpt lat="44.87003" lon="5.6747">
        <ele>616</ele>
        <time>2011-07-03T11:29:32Z</time>
      </trkpt>
      <trkpt lat="44.87004" lon="5.67443">
        <ele>614</ele>
        <time>2011-07-03T11:29:46Z</time>
      </trkpt>
      <trkpt lat="44.87001" lon="5.67436">
        <ele>614</ele>
        <time>2011-07-03T11:29:49Z</time>
      </trkpt>
      <trkpt lat="44.87" lon="5.67429">
        <ele>612</ele>
        <time>2011-07-03T11:29:57Z</time>
      </trkpt>
      <trkpt lat="44.87004" lon="5.67424">
        <ele>609</ele>
        <time>2011-07-03T11:30:03Z</time>
      </trkpt>
      <trkpt lat="44.8701" lon="5.67421">
        <ele>605</ele>
        <time>2011-07-03T11:30:18Z</time>
      </trkpt>
      <trkpt lat="44.87011" lon="5.67414">
        <ele>603</ele>
        <time>2011-07-03T11:30:24Z</time>
      </trkpt>
      <trkpt lat="44.87012" lon="5.67407">
        <ele>602</ele>
        <time>2011-07-03T11:30:29Z</time>
      </trkpt>
      <trkpt lat="44.87009" lon="5.674">
        <ele>602</ele>
        <time>2011-07-03T11:30:38Z</time>
      </trkpt>
      <trkpt lat="44.87011" lon="5.67394">
        <ele>600</ele>
        <time>2011-07-03T11:30:46Z</time>
      </trkpt>
      <trkpt lat="44.87016" lon="5.67393">
        <ele>600</ele>
        <time>2011-07-03T11:30:51Z</time>
      </trkpt>
      <trkpt lat="44.8703" lon="5.67403">
        <ele>598</ele>
        <time>2011-07-03T11:31:10Z</time>
      </trkpt>
      <trkpt lat="44.87035" lon="5.67409">
        <ele>597</ele>
        <time>2011-07-03T11:31:15Z</time>
      </trkpt>
      <trkpt lat="44.87038" lon="5.6742">
        <ele>597</ele>
        <time>2011-07-03T11:31:22Z</time>
      </trkpt>
      <trkpt lat="44.87034" lon="5.67445">
        <ele>597</ele>
        <time>2011-07-03T11:31:44Z</time>
      </trkpt>
      <trkpt lat="44.87034" lon="5.67495">
        <ele>598</ele>
        <time>2011-07-03T11:32:15Z</time>
      </trkpt>
      <trkpt lat="44.87037" lon="5.67523">
        <ele>599</ele>
        <time>2011-07-03T11:32:34Z</time>
      </trkpt>
      <trkpt lat="44.87041" lon="5.67549">
        <ele>598</ele>
        <time>2011-07-03T11:32:52Z</time>
      </trkpt>
      <trkpt lat="44.87042" lon="5.67568">
        <ele>598</ele>
        <time>2011-07-03T11:33:05Z</time>
      </trkpt>
      <trkpt lat="44.87042" lon="5.6758">
        <ele>595</ele>
        <time>2011-07-03T11:33:27Z</time>
      </trkpt>
      <trkpt lat="44.87052" lon="5.67581">
        <ele>594</ele>
        <time>2011-07-03T11:33:36Z</time>
      </trkpt>
      <trkpt lat="44.87063" lon="5.67584">
        <ele>592</ele>
        <time>2011-07-03T11:33:47Z</time>
      </trkpt>
      <trkpt lat="44.87072" lon="5.676">
        <ele>592</ele>
        <time>2011-07-03T11:33:52Z</time>
      </trkpt>
      <trkpt lat="44.87075" lon="5.67609">
        <ele>592</ele>
        <time>2011-07-03T11:33:54Z</time>
      </trkpt>
      <trkpt lat="44.87075" lon="5.67616">
        <ele>592</ele>
        <time>2011-07-03T11:34:04Z</time>
      </trkpt>
      <trkpt lat="44.87083" lon="5.67619">
        <ele>586</ele>
        <time>2011-07-03T11:34:24Z</time>
      </trkpt>
      <trkpt lat="44.87079" lon="5.67636">
        <ele>580</ele>
        <time>2011-07-03T11:34:46Z</time>
      </trkpt>
      <trkpt lat="44.87082" lon="5.67644">
        <ele>580</ele>
        <time>2011-07-03T11:34:50Z</time>
      </trkpt>
      <trkpt lat="44.87086" lon="5.67639">
        <ele>579</ele>
        <time>2011-07-03T11:34:57Z</time>
      </trkpt>
      <trkpt lat="44.87087" lon="5.67632">
        <ele>578</ele>
        <time>2011-07-03T11:35:12Z</time>
      </trkpt>
      <trkpt lat="44.87093" lon="5.67637">
        <ele>574</ele>
        <time>2011-07-03T11:35:32Z</time>
      </trkpt>
      <trkpt lat="44.87092" lon="5.67644">
        <ele>573</ele>
        <time>2011-07-03T11:35:36Z</time>
      </trkpt>
      <trkpt lat="44.87089" lon="5.6765">
        <ele>571</ele>
        <time>2011-07-03T11:35:46Z</time>
      </trkpt>
      <trkpt lat="44.87089" lon="5.67656">
        <ele>568</ele>
        <time>2011-07-03T11:36:06Z</time>
      </trkpt>
      <trkpt lat="44.87087" lon="5.67663">
        <ele>567</ele>
        <time>2011-07-03T11:36:12Z</time>
      </trkpt>
      <trkpt lat="44.87092" lon="5.67664">
        <ele>566</ele>
        <time>2011-07-03T11:36:30Z</time>
      </trkpt>
      <trkpt lat="44.8711" lon="5.67661">
        <ele>565</ele>
        <time>2011-07-03T11:36:47Z</time>
      </trkpt>
      <trkpt lat="44.87114" lon="5.67652">
        <ele>565</ele>
        <time>2011-07-03T11:36:55Z</time>
      </trkpt>
      <trkpt lat="44.87112" lon="5.67645">
        <ele>565</ele>
        <time>2011-07-03T11:36:57Z</time>
      </trkpt>
      <trkpt lat="44.87109" lon="5.67639">
        <ele>565</ele>
        <time>2011-07-03T11:37:02Z</time>
      </trkpt>
      <trkpt lat="44.87119" lon="5.67648">
        <ele>562</ele>
        <time>2011-07-03T11:37:25Z</time>
      </trkpt>
      <trkpt lat="44.87155" lon="5.67659">
        <ele>554</ele>
        <time>2011-07-03T11:37:57Z</time>
      </trkpt>
      <trkpt lat="44.87165" lon="5.6766">
        <ele>553</ele>
        <time>2011-07-03T11:38:04Z</time>
      </trkpt>
      <trkpt lat="44.87172" lon="5.6768">
        <ele>553</ele>
        <time>2011-07-03T11:38:11Z</time>
      </trkpt>
      <trkpt lat="44.87176" lon="5.67679">
        <ele>551</ele>
        <time>2011-07-03T11:38:40Z</time>
      </trkpt>
      <trkpt lat="44.8718" lon="5.6769">
        <ele>548</ele>
        <time>2011-07-03T11:38:56Z</time>
      </trkpt>
      <trkpt lat="44.87189" lon="5.67695">
        <ele>546</ele>
        <time>2011-07-03T11:39:04Z</time>
      </trkpt>
      <trkpt lat="44.87195" lon="5.67683">
        <ele>546</ele>
        <time>2011-07-03T11:39:06Z</time>
      </trkpt>
      <trkpt lat="44.872" lon="5.67668">
        <ele>547</ele>
        <time>2011-07-03T11:39:10Z</time>
      </trkpt>
      <trkpt lat="44.87209" lon="5.67661">
        <ele>550</ele>
        <time>2011-07-03T11:39:18Z</time>
      </trkpt>
      <trkpt lat="44.87218" lon="5.67666">
        <ele>550</ele>
        <time>2011-07-03T11:39:24Z</time>
      </trkpt>
      <trkpt lat="44.87226" lon="5.67675">
        <ele>551</ele>
        <time>2011-07-03T11:39:33Z</time>
      </trkpt>
      <trkpt lat="44.87253" lon="5.67692">
        <ele>550</ele>
        <time>2011-07-03T11:39:52Z</time>
      </trkpt>
      <trkpt lat="44.87263" lon="5.67706">
        <ele>549</ele>
        <time>2011-07-03T11:40:02Z</time>
      </trkpt>
      <trkpt lat="44.87279" lon="5.67715">
        <ele>547</ele>
        <time>2011-07-03T11:40:28Z</time>
      </trkpt>
      <trkpt lat="44.87284" lon="5.67716">
        <ele>547</ele>
        <time>2011-07-03T11:40:35Z</time>
      </trkpt>
      <trkpt lat="44.87288" lon="5.67726">
        <ele>547</ele>
        <time>2011-07-03T11:40:40Z</time>
      </trkpt>
      <trkpt lat="44.87285" lon="5.6773">
        <ele>547</ele>
        <time>2011-07-03T11:41:16Z</time>
      </trkpt>
      <trkpt lat="44.87285" lon="5.67731">
        <ele>547</ele>
        <time>2011-07-03T11:41:56Z</time>
      </trkpt>
      <trkpt lat="44.87288" lon="5.67734">
        <ele>547</ele>
        <time>2011-07-03T11:43:10Z</time>
      </trkpt>
      <trkpt lat="44.87287" lon="5.67741">
        <ele>547</ele>
        <time>2011-07-03T11:43:13Z</time>
      </trkpt>
      <trkpt lat="44.87286" lon="5.67735">
        <ele>547</ele>
        <time>2011-07-03T11:43:41Z</time>
      </trkpt>
      <trkpt lat="44.87278" lon="5.67721">
        <ele>548</ele>
        <time>2011-07-03T11:44:07Z</time>
      </trkpt>
      <trkpt lat="44.87274" lon="5.67721">
        <ele>546</ele>
        <time>2011-07-03T11:44:24Z</time>
      </trkpt>
      <trkpt lat="44.87259" lon="5.67718">
        <ele>545</ele>
        <time>2011-07-03T11:44:41Z</time>
      </trkpt>
      <trkpt lat="44.87251" lon="5.67714">
        <ele>546</ele>
        <time>2011-07-03T11:44:51Z</time>
      </trkpt>
      <trkpt lat="44.87222" lon="5.67694">
        <ele>549</ele>
        <time>2011-07-03T11:45:28Z</time>
      </trkpt>
      <trkpt lat="44.87176" lon="5.67677">
        <ele>550</ele>
        <time>2011-07-03T11:46:06Z</time>
      </trkpt>
      <trkpt lat="44.87147" lon="5.67669">
        <ele>551</ele>
        <time>2011-07-03T11:46:25Z</time>
      </trkpt>
      <trkpt lat="44.87125" lon="5.67653">
        <ele>553</ele>
        <time>2011-07-03T11:46:55Z</time>
      </trkpt>
      <trkpt lat="44.87111" lon="5.67649">
        <ele>552</ele>
        <time>2011-07-03T11:47:05Z</time>
      </trkpt>
      <trkpt lat="44.87107" lon="5.67651">
        <ele>551</ele>
        <time>2011-07-03T11:47:26Z</time>
      </trkpt>
      <trkpt lat="44.87108" lon="5.67653">
        <ele>546</ele>
        <time>2011-07-03T11:48:46Z</time>
      </trkpt>
      <trkpt lat="44.87105" lon="5.67659">
        <ele>546</ele>
        <time>2011-07-03T11:48:54Z</time>
      </trkpt>
      <trkpt lat="44.871" lon="5.67661">
        <ele>546</ele>
        <time>2011-07-03T11:49:01Z</time>
      </trkpt>
      <trkpt lat="44.87083" lon="5.67661">
        <ele>548</ele>
        <time>2011-07-03T11:49:34Z</time>
      </trkpt>
      <trkpt lat="44.87087" lon="5.67654">
        <ele>551</ele>
        <time>2011-07-03T11:50:15Z</time>
      </trkpt>
      <trkpt lat="44.87086" lon="5.67645">
        <ele>555</ele>
        <time>2011-07-03T11:50:39Z</time>
      </trkpt>
      <trkpt lat="44.87083" lon="5.67638">
        <ele>556</ele>
        <time>2011-07-03T11:50:54Z</time>
      </trkpt>
      <trkpt lat="44.87079" lon="5.67637">
        <ele>560</ele>
        <time>2011-07-03T11:51:28Z</time>
      </trkpt>
      <trkpt lat="44.87076" lon="5.67617">
        <ele>563</ele>
        <time>2011-07-03T11:51:49Z</time>
      </trkpt>
      <trkpt lat="44.87054" lon="5.67592">
        <ele>569</ele>
        <time>2011-07-03T11:53:02Z</time>
      </trkpt>
      <trkpt lat="44.87045" lon="5.67579">
        <ele>573</ele>
        <time>2011-07-03T11:53:28Z</time>
      </trkpt>
      <trkpt lat="44.87041" lon="5.67575">
        <ele>573</ele>
        <time>2011-07-03T11:53:31Z</time>
      </trkpt>
      <trkpt lat="44.87034" lon="5.67567">
        <ele>577</ele>
        <time>2011-07-03T11:53:43Z</time>
      </trkpt>
      <trkpt lat="44.87034" lon="5.67554">
        <ele>580</ele>
        <time>2011-07-03T11:54:00Z</time>
      </trkpt>
      <trkpt lat="44.87033" lon="5.67523">
        <ele>585</ele>
        <time>2011-07-03T11:54:30Z</time>
      </trkpt>
      <trkpt lat="44.87027" lon="5.67499">
        <ele>589</ele>
        <time>2011-07-03T11:55:04Z</time>
      </trkpt>
      <trkpt lat="44.8702" lon="5.67474">
        <ele>592</ele>
        <time>2011-07-03T11:55:27Z</time>
      </trkpt>
      <trkpt lat="44.87022" lon="5.6746">
        <ele>594</ele>
        <time>2011-07-03T11:55:40Z</time>
      </trkpt>
      <trkpt lat="44.87033" lon="5.67441">
        <ele>597</ele>
        <time>2011-07-03T11:56:02Z</time>
      </trkpt>
      <trkpt lat="44.8704" lon="5.67439">
        <ele>598</ele>
        <time>2011-07-03T11:56:15Z</time>
      </trkpt>
      <trkpt lat="44.87042" lon="5.67429">
        <ele>599</ele>
        <time>2011-07-03T11:56:31Z</time>
      </trkpt>
      <trkpt lat="44.8704" lon="5.67422">
        <ele>600</ele>
        <time>2011-07-03T11:56:41Z</time>
      </trkpt>
      <trkpt lat="44.87034" lon="5.67411">
        <ele>601</ele>
        <time>2011-07-03T11:56:57Z</time>
      </trkpt>
      <trkpt lat="44.87024" lon="5.67413">
        <ele>601</ele>
        <time>2011-07-03T11:57:05Z</time>
      </trkpt>
      <trkpt lat="44.87021" lon="5.67405">
        <ele>600</ele>
        <time>2011-07-03T11:57:08Z</time>
      </trkpt>
      <trkpt lat="44.87022" lon="5.67398">
        <ele>600</ele>
        <time>2011-07-03T11:57:13Z</time>
      </trkpt>
      <trkpt lat="44.87014" lon="5.67393">
        <ele>600</ele>
        <time>2011-07-03T11:57:33Z</time>
      </trkpt>
      <trkpt lat="44.87015" lon="5.67386">
        <ele>598</ele>
        <time>2011-07-03T11:58:16Z</time>
      </trkpt>
      <trkpt lat="44.87015" lon="5.67388">
        <ele>598</ele>
        <time>2011-07-03T11:58:48Z</time>
      </trkpt>
      <trkpt lat="44.87013" lon="5.67393">
        <ele>597</ele>
        <time>2011-07-03T11:58:56Z</time>
      </trkpt>
      <trkpt lat="44.87014" lon="5.67408">
        <ele>596</ele>
        <time>2011-07-03T11:59:33Z</time>
      </trkpt>
      <trkpt lat="44.87007" lon="5.67429">
        <ele>596</ele>
        <time>2011-07-03T11:59:57Z</time>
      </trkpt>
      <trkpt lat="44.86999" lon="5.67463">
        <ele>598</ele>
        <time>2011-07-03T12:00:19Z</time>
      </trkpt>
      <trkpt lat="44.87001" lon="5.67469">
        <ele>599</ele>
        <time>2011-07-03T12:00:23Z</time>
      </trkpt>
      <trkpt lat="44.86998" lon="5.67477">
        <ele>599</ele>
        <time>2011-07-03T12:00:30Z</time>
      </trkpt>
      <trkpt lat="44.86973" lon="5.67515">
        <ele>604</ele>
        <time>2011-07-03T12:01:08Z</time>
      </trkpt>
      <trkpt lat="44.8697" lon="5.67521">
        <ele>605</ele>
        <time>2011-07-03T12:01:19Z</time>
      </trkpt>
      <trkpt lat="44.86963" lon="5.67537">
        <ele>606</ele>
        <time>2011-07-03T12:01:26Z</time>
      </trkpt>
      <trkpt lat="44.86958" lon="5.67537">
        <ele>606</ele>
        <time>2011-07-03T12:01:34Z</time>
      </trkpt>
      <trkpt lat="44.86949" lon="5.67534">
        <ele>606</ele>
        <time>2011-07-03T12:01:42Z</time>
      </trkpt>
      <trkpt lat="44.86949" lon="5.67537">
        <ele>606</ele>
        <time>2011-07-03T12:02:31Z</time>
      </trkpt>
      <trkpt lat="44.8694" lon="5.67527">
        <ele>607</ele>
        <time>2011-07-03T12:02:51Z</time>
      </trkpt>
      <trkpt lat="44.86939" lon="5.67514">
        <ele>608</ele>
        <time>2011-07-03T12:03:03Z</time>
      </trkpt>
      <trkpt lat="44.86944" lon="5.67501">
        <ele>609</ele>
        <time>2011-07-03T12:03:11Z</time>
      </trkpt>
      <trkpt lat="44.86942" lon="5.67485">
        <ele>609</ele>
        <time>2011-07-03T12:03:29Z</time>
      </trkpt>
      <trkpt lat="44.86924" lon="5.67455">
        <ele>609</ele>
        <time>2011-07-03T12:04:00Z</time>
      </trkpt>
      <trkpt lat="44.86913" lon="5.6744">
        <ele>610</ele>
        <time>2011-07-03T12:04:24Z</time>
      </trkpt>
      <trkpt lat="44.86897" lon="5.67419">
        <ele>608</ele>
        <time>2011-07-03T12:04:58Z</time>
      </trkpt>
      <trkpt lat="44.8689" lon="5.67416">
        <ele>607</ele>
        <time>2011-07-03T12:05:08Z</time>
      </trkpt>
      <trkpt lat="44.86885" lon="5.67417">
        <ele>605</ele>
        <time>2011-07-03T12:05:17Z</time>
      </trkpt>
      <trkpt lat="44.86872" lon="5.67408">
        <ele>601</ele>
        <time>2011-07-03T12:05:39Z</time>
      </trkpt>
      <trkpt lat="44.86863" lon="5.67409">
        <ele>599</ele>
        <time>2011-07-03T12:05:50Z</time>
      </trkpt>
      <trkpt lat="44.86848" lon="5.67427">
        <ele>596</ele>
        <time>2011-07-03T12:06:14Z</time>
      </trkpt>
      <trkpt lat="44.8684" lon="5.67442">
        <ele>594</ele>
        <time>2011-07-03T12:06:30Z</time>
      </trkpt>
      <trkpt lat="44.86835" lon="5.67455">
        <ele>594</ele>
        <time>2011-07-03T12:06:41Z</time>
      </trkpt>
      <trkpt lat="44.8681" lon="5.67466">
        <ele>594</ele>
        <time>2011-07-03T12:07:03Z</time>
      </trkpt>
      <trkpt lat="44.8678" lon="5.6748">
        <ele>592</ele>
        <time>2011-07-03T12:07:30Z</time>
      </trkpt>
      <trkpt lat="44.86761" lon="5.67477">
        <ele>591</ele>
        <time>2011-07-03T12:07:42Z</time>
      </trkpt>
      <trkpt lat="44.86754" lon="5.6748">
        <ele>590</ele>
        <time>2011-07-03T12:07:55Z</time>
      </trkpt>
      <trkpt lat="44.86746" lon="5.6747">
        <ele>590</ele>
        <time>2011-07-03T12:08:07Z</time>
      </trkpt>
      <trkpt lat="44.8672" lon="5.67451">
        <ele>592</ele>
        <time>2011-07-03T12:08:29Z</time>
      </trkpt>
      <trkpt lat="44.86714" lon="5.6744">
        <ele>593</ele>
        <time>2011-07-03T12:08:37Z</time>
      </trkpt>
      <trkpt lat="44.8672" lon="5.67427">
        <ele>593</ele>
        <time>2011-07-03T12:08:43Z</time>
      </trkpt>
      <trkpt lat="44.86724" lon="5.67414">
        <ele>592</ele>
        <time>2011-07-03T12:08:50Z</time>
      </trkpt>
      <trkpt lat="44.86732" lon="5.67405">
        <ele>592</ele>
        <time>2011-07-03T12:09:03Z</time>
      </trkpt>
      <trkpt lat="44.86731" lon="5.6741">
        <ele>584</ele>
        <time>2011-07-03T12:09:36Z</time>
      </trkpt>
      <trkpt lat="44.86721" lon="5.67412">
        <ele>583</ele>
        <time>2011-07-03T12:09:41Z</time>
      </trkpt>
      <trkpt lat="44.8672" lon="5.6742">
        <ele>579</ele>
        <time>2011-07-03T12:10:00Z</time>
      </trkpt>
      <trkpt lat="44.86717" lon="5.67462">
        <ele>575</ele>
        <time>2011-07-03T12:10:31Z</time>
      </trkpt>
      <trkpt lat="44.86714" lon="5.67495">
        <ele>574</ele>
        <time>2011-07-03T12:10:54Z</time>
      </trkpt>
      <trkpt lat="44.86723" lon="5.67535">
        <ele>576</ele>
        <time>2011-07-03T12:11:28Z</time>
      </trkpt>
      <trkpt lat="44.86733" lon="5.67585">
        <ele>579</ele>
        <time>2011-07-03T12:12:00Z</time>
      </trkpt>
      <trkpt lat="44.86729" lon="5.67636">
        <ele>582</ele>
        <time>2011-07-03T12:12:30Z</time>
      </trkpt>
      <trkpt lat="44.86728" lon="5.67643">
        <ele>583</ele>
        <time>2011-07-03T12:12:36Z</time>
      </trkpt>
      <trkpt lat="44.86718" lon="5.67642">
        <ele>584</ele>
        <time>2011-07-03T12:12:46Z</time>
      </trkpt>
      <trkpt lat="44.86709" lon="5.67636">
        <ele>585</ele>
        <time>2011-07-03T12:12:54Z</time>
      </trkpt>
      <trkpt lat="44.867" lon="5.67614">
        <ele>587</ele>
        <time>2011-07-03T12:13:11Z</time>
      </trkpt>
      <trkpt lat="44.86698" lon="5.67597">
        <ele>590</ele>
        <time>2011-07-03T12:13:23Z</time>
      </trkpt>
      <trkpt lat="44.86683" lon="5.67559">
        <ele>597</ele>
        <time>2011-07-03T12:13:53Z</time>
      </trkpt>
      <trkpt lat="44.86666" lon="5.67511">
        <ele>602</ele>
        <time>2011-07-03T12:14:24Z</time>
      </trkpt>
      <trkpt lat="44.86649" lon="5.67451">
        <ele>604</ele>
        <time>2011-07-03T12:14:59Z</time>
      </trkpt>
      <trkpt lat="44.86646" lon="5.67442">
        <ele>604</ele>
        <time>2011-07-03T12:15:06Z</time>
      </trkpt>
      <trkpt lat="44.86636" lon="5.67432">
        <ele>606</ele>
        <time>2011-07-03T12:15:16Z</time>
      </trkpt>
      <trkpt lat="44.86617" lon="5.67382">
        <ele>610</ele>
        <time>2011-07-03T12:15:54Z</time>
      </trkpt>
      <trkpt lat="44.86615" lon="5.67369">
        <ele>610</ele>
        <time>2011-07-03T12:16:02Z</time>
      </trkpt>
      <trkpt lat="44.86607" lon="5.67362">
        <ele>609</ele>
        <time>2011-07-03T12:16:19Z</time>
      </trkpt>
      <trkpt lat="44.86604" lon="5.67372">
        <ele>608</ele>
        <time>2011-07-03T12:16:28Z</time>
      </trkpt>
      <trkpt lat="44.86601" lon="5.67379">
        <ele>608</ele>
        <time>2011-07-03T12:16:33Z</time>
      </trkpt>
      <trkpt lat="44.86603" lon="5.67436">
        <ele>606</ele>
        <time>2011-07-03T12:17:06Z</time>
      </trkpt>
      <trkpt lat="44.86603" lon="5.67443">
        <ele>606</ele>
        <time>2011-07-03T12:17:10Z</time>
      </trkpt>
      <trkpt lat="44.86594" lon="5.67485">
        <ele>607</ele>
        <time>2011-07-03T12:17:42Z</time>
      </trkpt>
      <trkpt lat="44.86589" lon="5.67485">
        <ele>607</ele>
        <time>2011-07-03T12:17:43Z</time>
      </trkpt>
      <trkpt lat="44.86589" lon="5.6749">
        <ele>607</ele>
        <time>2011-07-03T12:18:11Z</time>
      </trkpt>
      <trkpt lat="44.86594" lon="5.6749">
        <ele>607</ele>
        <time>2011-07-03T12:18:22Z</time>
      </trkpt>
      <trkpt lat="44.86598" lon="5.67494">
        <ele>607</ele>
        <time>2011-07-03T12:18:28Z</time>
      </trkpt>
      <trkpt lat="44.86589" lon="5.67499">
        <ele>607</ele>
        <time>2011-07-03T12:18:50Z</time>
      </trkpt>
      <trkpt lat="44.86587" lon="5.67493">
        <ele>606</ele>
        <time>2011-07-03T12:19:03Z</time>
      </trkpt>
      <trkpt lat="44.86585" lon="5.67487">
        <ele>606</ele>
        <time>2011-07-03T12:19:06Z</time>
      </trkpt>
      <trkpt lat="44.86582" lon="5.67492">
        <ele>603</ele>
        <time>2011-07-03T12:21:07Z</time>
      </trkpt>
      <trkpt lat="44.86586" lon="5.67494">
        <ele>604</ele>
        <time>2011-07-03T12:21:49Z</time>
      </trkpt>
      <trkpt lat="44.86584" lon="5.67491">
        <ele>604</ele>
        <time>2011-07-03T12:22:37Z</time>
      </trkpt>
      <trkpt lat="44.8658" lon="5.67496">
        <ele>603</ele>
        <time>2011-07-03T12:23:30Z</time>
      </trkpt>
      <trkpt lat="44.86575" lon="5.67507">
        <ele>603</ele>
        <time>2011-07-03T12:23:47Z</time>
      </trkpt>
      <trkpt lat="44.8656" lon="5.67516">
        <ele>604</ele>
        <time>2011-07-03T12:24:10Z</time>
      </trkpt>
      <trkpt lat="44.8653" lon="5.67519">
        <ele>606</ele>
        <time>2011-07-03T12:24:44Z</time>
      </trkpt>
      <trkpt lat="44.86509" lon="5.67533">
        <ele>608</ele>
        <time>2011-07-03T12:25:07Z</time>
      </trkpt>
      <trkpt lat="44.86488" lon="5.67559">
        <ele>611</ele>
        <time>2011-07-03T12:25:40Z</time>
      </trkpt>
      <trkpt lat="44.86445" lon="5.67566">
        <ele>616</ele>
        <time>2011-07-03T12:26:12Z</time>
      </trkpt>
      <trkpt lat="44.86436" lon="5.67566">
        <ele>618</ele>
        <time>2011-07-03T12:26:29Z</time>
      </trkpt>
      <trkpt lat="44.86425" lon="5.67574">
        <ele>619</ele>
        <time>2011-07-03T12:26:39Z</time>
      </trkpt>
      <trkpt lat="44.86419" lon="5.67575">
        <ele>622</ele>
        <time>2011-07-03T12:27:07Z</time>
      </trkpt>
      <trkpt lat="44.86395" lon="5.67588">
        <ele>626</ele>
        <time>2011-07-03T12:27:44Z</time>
      </trkpt>
      <trkpt lat="44.86372" lon="5.67588">
        <ele>631</ele>
        <time>2011-07-03T12:28:16Z</time>
      </trkpt>
      <trkpt lat="44.86337" lon="5.6759">
        <ele>636</ele>
        <time>2011-07-03T12:28:52Z</time>
      </trkpt>
      <trkpt lat="44.8632" lon="5.67603">
        <ele>640</ele>
        <time>2011-07-03T12:29:15Z</time>
      </trkpt>
      <trkpt lat="44.86296" lon="5.6763">
        <ele>644</ele>
        <time>2011-07-03T12:29:51Z</time>
      </trkpt>
      <trkpt lat="44.8629" lon="5.67636">
        <ele>645</ele>
        <time>2011-07-03T12:30:05Z</time>
      </trkpt>
      <trkpt lat="44.86289" lon="5.67643">
        <ele>645</ele>
        <time>2011-07-03T12:30:06Z</time>
      </trkpt>
      <trkpt lat="44.86281" lon="5.67645">
        <ele>646</ele>
        <time>2011-07-03T12:30:18Z</time>
      </trkpt>
      <trkpt lat="44.86267" lon="5.6765">
        <ele>647</ele>
        <time>2011-07-03T12:30:31Z</time>
      </trkpt>
      <trkpt lat="44.86241" lon="5.67667">
        <ele>650</ele>
        <time>2011-07-03T12:31:03Z</time>
      </trkpt>
      <trkpt lat="44.86206" lon="5.67706">
        <ele>653</ele>
        <time>2011-07-03T12:31:37Z</time>
      </trkpt>
      <trkpt lat="44.86189" lon="5.6772">
        <ele>655</ele>
        <time>2011-07-03T12:32:05Z</time>
      </trkpt>
      <trkpt lat="44.86188" lon="5.67703">
        <ele>659</ele>
        <time>2011-07-03T12:32:33Z</time>
      </trkpt>
      <trkpt lat="44.86185" lon="5.67689">
        <ele>662</ele>
        <time>2011-07-03T12:32:43Z</time>
      </trkpt>
      <trkpt lat="44.8616" lon="5.67656">
        <ele>671</ele>
        <time>2011-07-03T12:33:17Z</time>
      </trkpt>
      <trkpt lat="44.86132" lon="5.67626">
        <ele>677</ele>
        <time>2011-07-03T12:33:52Z</time>
      </trkpt>
      <trkpt lat="44.86094" lon="5.67611">
        <ele>682</ele>
        <time>2011-07-03T12:34:30Z</time>
      </trkpt>
      <trkpt lat="44.86063" lon="5.67603">
        <ele>685</ele>
        <time>2011-07-03T12:34:52Z</time>
      </trkpt>
      <trkpt lat="44.86054" lon="5.67607">
        <ele>685</ele>
        <time>2011-07-03T12:34:59Z</time>
      </trkpt>
      <trkpt lat="44.8605" lon="5.67612">
        <ele>686</ele>
        <time>2011-07-03T12:35:05Z</time>
      </trkpt>
      <trkpt lat="44.86032" lon="5.67618">
        <ele>688</ele>
        <time>2011-07-03T12:35:30Z</time>
      </trkpt>
      <trkpt lat="44.85994" lon="5.67617">
        <ele>691</ele>
        <time>2011-07-03T12:36:02Z</time>
      </trkpt>
      <trkpt lat="44.85964" lon="5.67621">
        <ele>695</ele>
        <time>2011-07-03T12:36:34Z</time>
      </trkpt>
      <trkpt lat="44.85955" lon="5.67626">
        <ele>697</ele>
        <time>2011-07-03T12:36:46Z</time>
      </trkpt>
      <trkpt lat="44.85913" lon="5.67642">
        <ele>700</ele>
        <time>2011-07-03T12:37:16Z</time>
      </trkpt>
      <trkpt lat="44.85907" lon="5.67651">
        <ele>701</ele>
        <time>2011-07-03T12:37:26Z</time>
      </trkpt>
      <trkpt lat="44.85905" lon="5.67656">
        <ele>707</ele>
        <time>2011-07-03T12:41:02Z</time>
      </trkpt>
      <trkpt lat="44.85901" lon="5.67662">
        <ele>707</ele>
        <time>2011-07-03T12:41:38Z</time>
      </trkpt>
      <trkpt lat="44.8589" lon="5.67667">
        <ele>707</ele>
        <time>2011-07-03T12:41:59Z</time>
      </trkpt>
      <trkpt lat="44.8588" lon="5.67665">
        <ele>707</ele>
        <time>2011-07-03T12:42:08Z</time>
      </trkpt>
      <trkpt lat="44.85877" lon="5.6767">
        <ele>708</ele>
        <time>2011-07-03T12:42:15Z</time>
      </trkpt>
      <trkpt lat="44.85881" lon="5.67673">
        <ele>709</ele>
        <time>2011-07-03T12:42:48Z</time>
      </trkpt>
      <trkpt lat="44.85883" lon="5.67673">
        <ele>710</ele>
        <time>2011-07-03T12:43:04Z</time>
      </trkpt>
      <trkpt lat="44.85875" lon="5.67676">
        <ele>711</ele>
        <time>2011-07-03T12:43:23Z</time>
      </trkpt>
      <trkpt lat="44.85856" lon="5.67696">
        <ele>714</ele>
        <time>2011-07-03T12:43:53Z</time>
      </trkpt>
      <trkpt lat="44.85831" lon="5.67717">
        <ele>718</ele>
        <time>2011-07-03T12:44:28Z</time>
      </trkpt>
      <trkpt lat="44.85826" lon="5.67719">
        <ele>719</ele>
        <time>2011-07-03T12:44:32Z</time>
      </trkpt>
      <trkpt lat="44.8582" lon="5.67718">
        <ele>719</ele>
        <time>2011-07-03T12:44:39Z</time>
      </trkpt>
      <trkpt lat="44.85817" lon="5.67714">
        <ele>720</ele>
        <time>2011-07-03T12:44:51Z</time>
      </trkpt>
      <trkpt lat="44.85801" lon="5.6772">
        <ele>723</ele>
        <time>2011-07-03T12:45:11Z</time>
      </trkpt>
      <trkpt lat="44.858" lon="5.67723">
        <ele>723</ele>
        <time>2011-07-03T12:45:17Z</time>
      </trkpt>
      <trkpt lat="44.85797" lon="5.67728">
        <ele>724</ele>
        <time>2011-07-03T12:45:48Z</time>
      </trkpt>
      <trkpt lat="44.85804" lon="5.67728">
        <ele>727</ele>
        <time>2011-07-03T12:46:35Z</time>
      </trkpt>
      <trkpt lat="44.85811" lon="5.67737">
        <ele>729</ele>
        <time>2011-07-03T12:46:46Z</time>
      </trkpt>
      <trkpt lat="44.85815" lon="5.67765">
        <ele>733</ele>
        <time>2011-07-03T12:47:20Z</time>
      </trkpt>
      <trkpt lat="44.85816" lon="5.67772">
        <ele>733</ele>
        <time>2011-07-03T12:47:36Z</time>
      </trkpt>
      <trkpt lat="44.85813" lon="5.67775">
        <ele>735</ele>
        <time>2011-07-03T12:48:32Z</time>
      </trkpt>
      <trkpt lat="44.85815" lon="5.67807">
        <ele>739</ele>
        <time>2011-07-03T12:49:09Z</time>
      </trkpt>
      <trkpt lat="44.85814" lon="5.67834">
        <ele>744</ele>
        <time>2011-07-03T12:49:44Z</time>
      </trkpt>
      <trkpt lat="44.85814" lon="5.67839">
        <ele>746</ele>
        <time>2011-07-03T12:49:57Z</time>
      </trkpt>
      <trkpt lat="44.85813" lon="5.67852">
        <ele>746</ele>
        <time>2011-07-03T12:50:04Z</time>
      </trkpt>
      <trkpt lat="44.85806" lon="5.67858">
        <ele>747</ele>
        <time>2011-07-03T12:50:26Z</time>
      </trkpt>
      <trkpt lat="44.8581" lon="5.67862">
        <ele>747</ele>
        <time>2011-07-03T12:50:38Z</time>
      </trkpt>
      <trkpt lat="44.85814" lon="5.67867">
        <ele>747</ele>
        <time>2011-07-03T12:50:45Z</time>
      </trkpt>
      <trkpt lat="44.85811" lon="5.67869">
        <ele>751</ele>
        <time>2011-07-03T12:51:45Z</time>
      </trkpt>
      <trkpt lat="44.85811" lon="5.67877">
        <ele>752</ele>
        <time>2011-07-03T12:51:58Z</time>
      </trkpt>
      <trkpt lat="44.85808" lon="5.67882">
        <ele>753</ele>
        <time>2011-07-03T12:52:09Z</time>
      </trkpt>
      <trkpt lat="44.85809" lon="5.67892">
        <ele>755</ele>
        <time>2011-07-03T12:52:19Z</time>
      </trkpt>
      <trkpt lat="44.85807" lon="5.67899">
        <ele>757</ele>
        <time>2011-07-03T12:52:27Z</time>
      </trkpt>
      <trkpt lat="44.85809" lon="5.67912">
        <ele>761</ele>
        <time>2011-07-03T12:52:45Z</time>
      </trkpt>
      <trkpt lat="44.85817" lon="5.67939">
        <ele>768</ele>
        <time>2011-07-03T12:53:21Z</time>
      </trkpt>
      <trkpt lat="44.85823" lon="5.6795">
        <ele>770</ele>
        <time>2011-07-03T12:53:28Z</time>
      </trkpt>
      <trkpt lat="44.85829" lon="5.67996">
        <ele>776</ele>
        <time>2011-07-03T12:54:08Z</time>
      </trkpt>
      <trkpt lat="44.85827" lon="5.68052">
        <ele>783</ele>
        <time>2011-07-03T12:54:46Z</time>
      </trkpt>
      <trkpt lat="44.85817" lon="5.68079">
        <ele>783</ele>
        <time>2011-07-03T12:55:00Z</time>
      </trkpt>
      <trkpt lat="44.8581" lon="5.68101">
        <ele>783</ele>
        <time>2011-07-03T12:55:14Z</time>
      </trkpt>
      <trkpt lat="44.85799" lon="5.68113">
        <ele>782</ele>
        <time>2011-07-03T12:55:33Z</time>
      </trkpt>
      <trkpt lat="44.85781" lon="5.68155">
        <ele>783</ele>
        <time>2011-07-03T12:56:06Z</time>
      </trkpt>
      <trkpt lat="44.85779" lon="5.68161">
        <ele>783</ele>
        <time>2011-07-03T12:56:13Z</time>
      </trkpt>
      <trkpt lat="44.85772" lon="5.68169">
        <ele>783</ele>
        <time>2011-07-03T12:56:26Z</time>
      </trkpt>
      <trkpt lat="44.85765" lon="5.68178">
        <ele>784</ele>
        <time>2011-07-03T12:56:43Z</time>
      </trkpt>
      <trkpt lat="44.85759" lon="5.68178">
        <ele>784</ele>
        <time>2011-07-03T12:56:45Z</time>
      </trkpt>
      <trkpt lat="44.85753" lon="5.68188">
        <ele>785</ele>
        <time>2011-07-03T12:56:56Z</time>
      </trkpt>
      <trkpt lat="44.85741" lon="5.68245">
        <ele>786</ele>
        <time>2011-07-03T12:57:39Z</time>
      </trkpt>
      <trkpt lat="44.8574" lon="5.68276">
        <ele>787</ele>
        <time>2011-07-03T12:58:00Z</time>
      </trkpt>
      <trkpt lat="44.85734" lon="5.68351">
        <ele>785</ele>
        <time>2011-07-03T12:58:24Z</time>
      </trkpt>
      <trkpt lat="44.8572" lon="5.68406">
        <ele>777</ele>
        <time>2011-07-03T12:58:58Z</time>
      </trkpt>
      <trkpt lat="44.85699" lon="5.68427">
        <ele>771</ele>
        <time>2011-07-03T12:59:29Z</time>
      </trkpt>
      <trkpt lat="44.85689" lon="5.68439">
        <ele>769</ele>
        <time>2011-07-03T12:59:52Z</time>
      </trkpt>
      <trkpt lat="44.85681" lon="5.68446">
        <ele>768</ele>
        <time>2011-07-03T13:00:01Z</time>
      </trkpt>
      <trkpt lat="44.85667" lon="5.68463">
        <ele>769</ele>
        <time>2011-07-03T13:00:22Z</time>
      </trkpt>
      <trkpt lat="44.85635" lon="5.68486">
        <ele>774</ele>
        <time>2011-07-03T13:01:11Z</time>
      </trkpt>
      <trkpt lat="44.85625" lon="5.68483">
        <ele>774</ele>
        <time>2011-07-03T13:01:26Z</time>
      </trkpt>
      <trkpt lat="44.85617" lon="5.68482">
        <ele>775</ele>
        <time>2011-07-03T13:02:13Z</time>
      </trkpt>
      <trkpt lat="44.85611" lon="5.68488">
        <ele>777</ele>
        <time>2011-07-03T13:02:38Z</time>
      </trkpt>
      <trkpt lat="44.85606" lon="5.6849">
        <ele>778</ele>
        <time>2011-07-03T13:02:55Z</time>
      </trkpt>
      <trkpt lat="44.85595" lon="5.68482">
        <ele>779</ele>
        <time>2011-07-03T13:03:34Z</time>
      </trkpt>
      <trkpt lat="44.85591" lon="5.68478">
        <ele>780</ele>
        <time>2011-07-03T13:03:57Z</time>
      </trkpt>
      <trkpt lat="44.85588" lon="5.68483">
        <ele>780</ele>
        <time>2011-07-03T13:04:36Z</time>
      </trkpt>
      <trkpt lat="44.85583" lon="5.68493">
        <ele>781</ele>
        <time>2011-07-03T13:05:00Z</time>
      </trkpt>
      <trkpt lat="44.85578" lon="5.6849">
        <ele>781</ele>
        <time>2011-07-03T13:05:08Z</time>
      </trkpt>
      <trkpt lat="44.85572" lon="5.68494">
        <ele>782</ele>
        <time>2011-07-03T13:05:23Z</time>
      </trkpt>
      <trkpt lat="44.85569" lon="5.68505">
        <ele>783</ele>
        <time>2011-07-03T13:05:42Z</time>
      </trkpt>
      <trkpt lat="44.85554" lon="5.68524">
        <ele>785</ele>
        <time>2011-07-03T13:06:17Z</time>
      </trkpt>
      <trkpt lat="44.85541" lon="5.68545">
        <ele>787</ele>
        <time>2011-07-03T13:06:58Z</time>
      </trkpt>
      <trkpt lat="44.85537" lon="5.68548">
        <ele>788</ele>
        <time>2011-07-03T13:07:01Z</time>
      </trkpt>
      <trkpt lat="44.85533" lon="5.68552">
        <ele>789</ele>
        <time>2011-07-03T13:07:13Z</time>
      </trkpt>
      <trkpt lat="44.85527" lon="5.68552">
        <ele>790</ele>
        <time>2011-07-03T13:07:20Z</time>
      </trkpt>
      <trkpt lat="44.85522" lon="5.68556">
        <ele>791</ele>
        <time>2011-07-03T13:07:38Z</time>
      </trkpt>
      <trkpt lat="44.85526" lon="5.68569">
        <ele>790</ele>
        <time>2011-07-03T13:07:52Z</time>
      </trkpt>
      <trkpt lat="44.85529" lon="5.68574">
        <ele>790</ele>
        <time>2011-07-03T13:08:01Z</time>
      </trkpt>
      <trkpt lat="44.85522" lon="5.68563">
        <ele>788</ele>
        <time>2011-07-03T13:09:07Z</time>
      </trkpt>
      <trkpt lat="44.85518" lon="5.68574">
        <ele>788</ele>
        <time>2011-07-03T13:09:45Z</time>
      </trkpt>
      <trkpt lat="44.85522" lon="5.68572">
        <ele>788</ele>
        <time>2011-07-03T13:10:16Z</time>
      </trkpt>
      <trkpt lat="44.85523" lon="5.68566">
        <ele>788</ele>
        <time>2011-07-03T13:10:33Z</time>
      </trkpt>
      <trkpt lat="44.85523" lon="5.68558">
        <ele>788</ele>
        <time>2011-07-03T13:10:42Z</time>
      </trkpt>
      <trkpt lat="44.85519" lon="5.68548">
        <ele>789</ele>
        <time>2011-07-03T13:11:14Z</time>
      </trkpt>
      <trkpt lat="44.85516" lon="5.68552">
        <ele>788</ele>
        <time>2011-07-03T13:11:39Z</time>
      </trkpt>
      <trkpt lat="44.85514" lon="5.68559">
        <ele>788</ele>
        <time>2011-07-03T13:11:51Z</time>
      </trkpt>
      <trkpt lat="44.85508" lon="5.68564">
        <ele>788</ele>
        <time>2011-07-03T13:12:45Z</time>
      </trkpt>
      <trkpt lat="44.85509" lon="5.68575">
        <ele>788</ele>
        <time>2011-07-03T13:13:03Z</time>
      </trkpt>
      <trkpt lat="44.85509" lon="5.68564">
        <ele>788</ele>
        <time>2011-07-03T13:13:27Z</time>
      </trkpt>
      <trkpt lat="44.85503" lon="5.68572">
        <ele>788</ele>
        <time>2011-07-03T13:14:10Z</time>
      </trkpt>
      <trkpt lat="44.85499" lon="5.68578">
        <ele>786</ele>
        <time>2011-07-03T13:14:32Z</time>
      </trkpt>
      <trkpt lat="44.85493" lon="5.68567">
        <ele>784</ele>
        <time>2011-07-03T13:14:55Z</time>
      </trkpt>
      <trkpt lat="44.85489" lon="5.68562">
        <ele>784</ele>
        <time>2011-07-03T13:14:59Z</time>
      </trkpt>
      <trkpt lat="44.85498" lon="5.68566">
        <ele>782</ele>
        <time>2011-07-03T13:15:16Z</time>
      </trkpt>
      <trkpt lat="44.85507" lon="5.68571">
        <ele>782</ele>
        <time>2011-07-03T13:15:26Z</time>
      </trkpt>
      <trkpt lat="44.85506" lon="5.68568">
        <ele>782</ele>
        <time>2011-07-03T13:15:53Z</time>
      </trkpt>
      <trkpt lat="44.85496" lon="5.68574">
        <ele>782</ele>
        <time>2011-07-03T13:16:03Z</time>
      </trkpt>
      <trkpt lat="44.85496" lon="5.68561">
        <ele>782</ele>
        <time>2011-07-03T13:16:25Z</time>
      </trkpt>
      <trkpt lat="44.85509" lon="5.68542">
        <ele>784</ele>
        <time>2011-07-03T13:17:11Z</time>
      </trkpt>
      <trkpt lat="44.85514" lon="5.68542">
        <ele>785</ele>
        <time>2011-07-03T13:17:16Z</time>
      </trkpt>
      <trkpt lat="44.85514" lon="5.68553">
        <ele>786</ele>
        <time>2011-07-03T13:17:31Z</time>
      </trkpt>
      <trkpt lat="44.85489" lon="5.68587">
        <ele>790</ele>
        <time>2011-07-03T13:18:06Z</time>
      </trkpt>
      <trkpt lat="44.85465" lon="5.68612">
        <ele>792</ele>
        <time>2011-07-03T13:18:43Z</time>
      </trkpt>
      <trkpt lat="44.85444" lon="5.68641">
        <ele>795</ele>
        <time>2011-07-03T13:19:19Z</time>
      </trkpt>
      <trkpt lat="44.85425" lon="5.68673">
        <ele>799</ele>
        <time>2011-07-03T13:19:54Z</time>
      </trkpt>
      <trkpt lat="44.85417" lon="5.68684">
        <ele>801</ele>
        <time>2011-07-03T13:20:06Z</time>
      </trkpt>
      <trkpt lat="44.85397" lon="5.68691">
        <ele>804</ele>
        <time>2011-07-03T13:20:29Z</time>
      </trkpt>
      <trkpt lat="44.85373" lon="5.68733">
        <ele>807</ele>
        <time>2011-07-03T13:21:01Z</time>
      </trkpt>
      <trkpt lat="44.85341" lon="5.68762">
        <ele>812</ele>
        <time>2011-07-03T13:21:34Z</time>
      </trkpt>
      <trkpt lat="44.85314" lon="5.68805">
        <ele>816</ele>
        <time>2011-07-03T13:22:13Z</time>
      </trkpt>
      <trkpt lat="44.85307" lon="5.68826">
        <ele>817</ele>
        <time>2011-07-03T13:22:41Z</time>
      </trkpt>
      <trkpt lat="44.85309" lon="5.68839">
        <ele>817</ele>
        <time>2011-07-03T13:22:50Z</time>
      </trkpt>
      <trkpt lat="44.85305" lon="5.68851">
        <ele>817</ele>
        <time>2011-07-03T13:23:15Z</time>
      </trkpt>
      <trkpt lat="44.853" lon="5.68852">
        <ele>815</ele>
        <time>2011-07-03T13:23:49Z</time>
      </trkpt>
      <trkpt lat="44.85302" lon="5.68848">
        <ele>812</ele>
        <time>2011-07-03T13:24:52Z</time>
      </trkpt>
      <trkpt lat="44.853" lon="5.68842">
        <ele>810</ele>
        <time>2011-07-03T13:25:41Z</time>
      </trkpt>
      <trkpt lat="44.85293" lon="5.68844">
        <ele>809</ele>
        <time>2011-07-03T13:25:56Z</time>
      </trkpt>
      <trkpt lat="44.85292" lon="5.68857">
        <ele>808</ele>
        <time>2011-07-03T13:26:29Z</time>
      </trkpt>
      <trkpt lat="44.85287" lon="5.689">
        <ele>809</ele>
        <time>2011-07-03T13:27:19Z</time>
      </trkpt>
      <trkpt lat="44.85284" lon="5.68911">
        <ele>810</ele>
        <time>2011-07-03T13:27:43Z</time>
      </trkpt>
      <trkpt lat="44.85278" lon="5.68922">
        <ele>810</ele>
        <time>2011-07-03T13:27:49Z</time>
      </trkpt>
      <trkpt lat="44.8528" lon="5.68932">
        <ele>810</ele>
        <time>2011-07-03T13:28:05Z</time>
      </trkpt>
      <trkpt lat="44.85283" lon="5.68951">
        <ele>810</ele>
        <time>2011-07-03T13:28:29Z</time>
      </trkpt>
      <trkpt lat="44.85275" lon="5.68984">
        <ele>809</ele>
        <time>2011-07-03T13:28:55Z</time>
      </trkpt>
      <trkpt lat="44.85265" lon="5.68989">
        <ele>809</ele>
        <time>2011-07-03T13:29:05Z</time>
      </trkpt>
    </trkseg>
  </trk>
</gpx>